M I D A S
Marine Information and Data Acquisition System
Tripno 1623 of the Zeeleeuw from 2008-12-19 08:01:44 to 2008-12-19 15:37:09
Back to CruiseResearch ActivitiesStationsMapUnderway DataData graphs

EquipmentUnitsComment
TimeDGPSUTC
LatitudeDGPSDM.mWGS84
LongitudeDGPSDM.mWGS84
TemperatureSBE03/SBE38deg celciusITS90
ConductivitySBE21S/mITS90
SalinitySBE21 Practical Salinity Units
ChlorophylAChelsea fluorimeterg/lCalibrated in Aceton
Missing or incorrect values are displayed as -999
Sea surface data collected by the RV Zeeleeuw from 2008-12-19 07:58:03 to 2008-12-19 15:40:02
                                                                                    Next 1000 lines
Time Latitude Longitude Temperature Conductivity Salinity ChlorophylA
2008-12-19 07:58:13 51°13.661 2°55.958 -999 0.050029 0.265833 -1.244337
2008-12-19 07:58:18 51°13.661 2°55.958 -999 0.049823 0.264715 -1.244337
2008-12-19 07:58:23 51°13.661 2°55.958 -999 0.048897 0.259671 -1.244337
2008-12-19 07:58:28 51°13.66 2°55.957 -999 0.048897 0.259671 -1.244337
2008-12-19 07:58:33 51°13.66 2°55.956 -999 0.045501 0.241254 -1.244337
2008-12-19 07:58:38 51°13.66 2°55.955 -999 0.045501 0.241238 -1.244337
2008-12-19 07:58:43 51°13.66 2°55.953 -999 0.043957 0.232896 -1.244337
2008-12-19 07:58:48 51°13.661 2°55.951 -999 0.045295 0.240113 -1.244337
2008-12-19 07:58:53 51°13.661 2°55.948 -999 0.045089 0.239005 -1.244337
2008-12-19 07:58:58 51°13.662 2°55.945 -999 0.044369 0.235114 -1.244337
2008-12-19 07:59:03 51°13.663 2°55.941 -999 0.044369 0.235114 -1.244337
2008-12-19 07:59:08 51°13.663 2°55.937 -999 0.044472 0.235665 -1.244337
2008-12-19 07:59:13 51°13.664 2°55.932 -999 0.045089 0.239009 -1.244337
2008-12-19 07:59:18 51°13.665 2°55.926 -999 0.041899 0.221784 -1.244337
2008-12-19 07:59:23 51°13.666 2°55.92 -999 0.043237 0.228987 -1.244337
2008-12-19 07:59:28 51°13.668 2°55.914 -999 0.043237 0.228987 -1.244337
2008-12-19 07:59:33 51°13.669 2°55.906 -999 0.041693 0.220669 -1.244337
2008-12-19 07:59:38 51°13.671 2°55.899 -999 0.042722 0.226213 -1.244337
2008-12-19 07:59:44 51°13.673 2°55.889 -999 0.044574 0.236217 -1.244337
2008-12-19 07:59:49 51°13.674 2°55.88 -999 0.044266 0.234562 -1.244337
2008-12-19 07:59:53 51°13.676 2°55.874 -999 0.045089 0.239013 -1.244337
2008-12-19 07:59:58 51°13.678 2°55.865 -999 0.045089 0.239013 -1.244337
2008-12-19 08:00:04 51°13.68 2°55.854 -999 0.044883 0.237901 -1.244337
2008-12-19 08:00:09 51°13.683 2°55.845 -999 0.045706 0.242355 -1.244337
2008-12-19 08:00:13 51°13.684 2°55.838 -999 0.045501 0.241246 -1.244337
2008-12-19 08:00:18 51°13.686 2°55.829 -999 0.045192 0.239577 -1.244337
2008-12-19 08:00:23 51°13.689 2°55.82 -999 0.045089 0.239021 -1.244337
2008-12-19 08:00:29 51°13.692 2°55.809 -999 0.045192 0.239577 -1.244337
2008-12-19 08:00:33 51°13.694 2°55.801 -999 0.045192 0.239577 -1.244337
2008-12-19 08:00:38 51°13.696 2°55.792 -999 0.043854 0.232348 -1.244337
2008-12-19 08:00:43 51°13.699 2°55.783 -999 0.044472 0.235677 -1.244337
2008-12-19 08:00:48 51°13.701 2°55.774 -999 0.048485 0.257428 -1.244337
2008-12-19 08:00:53 51°13.703 2°55.766 -999 0.053527 0.284892 -1.244337
2008-12-19 08:00:58 51°13.705 2°55.76 -999 0.053527 0.284916 -1.244337
2008-12-19 08:01:03 51°13.706 2°55.755 -999 0.053527 0.284916 -1.244337
2008-12-19 08:01:08 51°13.707 2°55.752 -999 0.055997 0.298418 -1.244337
2008-12-19 08:01:13 51°13.707 2°55.751 -999 0.061863 0.330647 -1.244337
2008-12-19 08:01:18 51°13.708 2°55.752 -999 0.066494 0.356219 -1.244337
2008-12-19 08:01:22 51°13.708 2°55.754 -999 0.059805 0.319358 -1.244337
2008-12-19 08:01:27 51°13.708 2°55.757 -999 0.059805 0.319358 -1.244337
2008-12-19 08:01:33 51°13.709 2°55.761 -999 0.047867 0.254152 -1.244337
2008-12-19 08:01:38 51°13.709 2°55.763 -999 0.045603 0.241827 -1.244337
2008-12-19 08:01:43 51°13.71 2°55.765 -999 0.042413 0.224558 -1.244337
2008-12-19 08:01:48 51°13.71 2°55.765 -999 0.042928 0.227315 -1.244337
2008-12-19 08:01:53 51°13.709 2°55.764 -999 0.040561 0.214568 -1.244337
2008-12-19 08:01:57 51°13.708 2°55.763 -999 0.044163 0.233967 -1.244337
2008-12-19 08:02:02 51°13.707 2°55.761 -999 0.044163 0.233967 -1.244337
2008-12-19 08:02:07 51°13.706 2°55.758 -999 0.043854 0.232313 -1.244337
2008-12-19 08:02:12 51°13.704 2°55.754 -999 0.041796 0.221226 -1.244337
2008-12-19 08:02:17 51°13.702 2°55.75 -999 0.043442 0.230104 -1.244337
2008-12-19 08:02:23 51°13.7 2°55.746 -999 0.044472 0.235669 -1.244337
2008-12-19 08:02:28 51°13.698 2°55.743 -999 0.048176 0.25574 -1.244337
2008-12-19 08:02:33 51°13.697 2°55.741 -999 0.048176 0.25574 -1.244337
2008-12-19 08:02:38 51°13.697 2°55.741 -999 0.0561 0.298976 -1.244337
2008-12-19 08:02:43 51°13.697 2°55.742 -999 0.060628 0.323847 -1.244337
2008-12-19 08:02:48 51°13.699 2°55.745 -999 0.063407 0.339172 -1.244337
2008-12-19 08:02:53 51°13.701 2°55.748 -999 0.0667 0.35738 -1.244337
2008-12-19 08:02:58 51°13.704 2°55.751 -999 0.047044 0.249684 -1.244337
2008-12-19 08:03:03 51°13.707 2°55.754 -999 0.047044 0.249684 -1.244337
2008-12-19 08:03:08 51°13.709 2°55.755 -999 0.045089 0.239037 -1.244337
2008-12-19 08:03:13 51°13.711 2°55.757 -999 0.042002 0.222315 -1.244337
2008-12-19 08:03:18 51°13.711 2°55.758 -999 0.041899 0.221743 -1.244337
2008-12-19 08:03:22 51°13.711 2°55.759 -999 0.041281 0.218418 -1.244337
2008-12-19 08:03:27 51°13.71 2°55.759 -999 0.041281 0.218418 -1.244337
2008-12-19 08:03:32 51°13.709 2°55.76 -999 0.041178 0.217857 -1.244337
2008-12-19 08:03:37 51°13.707 2°55.76 -999 0.041076 0.217308 -1.244337
2008-12-19 08:03:42 51°13.704 2°55.76 -999 0.040767 0.215652 -1.244337
2008-12-19 08:03:47 51°13.701 2°55.759 -999 0.042413 0.22452 -1.244337
2008-12-19 08:03:53 51°13.698 2°55.759 -999 0.043237 0.228967 -1.244337
2008-12-19 08:03:58 51°13.696 2°55.758 -999 0.048176 0.255714 -1.244337
2008-12-19 08:04:03 51°13.696 2°55.758 -999 0.048176 0.255714 -1.244337
2008-12-19 08:04:08 51°13.696 2°55.759 -999 0.051572 0.274221 -1.244337
2008-12-19 08:04:13 51°13.698 2°55.759 -999 0.05538 0.295047 -1.244337
2008-12-19 08:04:18 51°13.7 2°55.759 -999 0.058055 0.309724 -1.244337
2008-12-19 08:04:24 51°13.704 2°55.758 -999 0.058467 0.312007 -1.244337
2008-12-19 08:04:28 51°13.707 2°55.757 -999 0.053527 0.284974 -1.244337
2008-12-19 08:04:33 51°13.712 2°55.753 -999 0.053527 0.284974 -1.244337
2008-12-19 08:04:38 51°13.718 2°55.749 -999 0.044986 0.238505 -1.244337
2008-12-19 08:04:43 51°13.723 2°55.743 -999 0.042105 0.222895 -1.244337
2008-12-19 08:04:48 51°13.73 2°55.737 -999 0.041796 0.221193 -1.244337
2008-12-19 08:04:53 51°13.737 2°55.73 -999 0.038915 0.205687 -1.244337
2008-12-19 08:04:57 51°13.742 2°55.723 -999 0.038915 0.205687 -1.244337
2008-12-19 08:05:02 51°13.75 2°55.715 -999 0.038606 0.204019 -1.244337
2008-12-19 08:05:07 51°13.758 2°55.707 -999 0.038194 0.201814 -1.244337
2008-12-19 08:05:12 51°13.767 2°55.699 -999 0.03768 0.199067 -1.244337
2008-12-19 08:05:17 51°13.776 2°55.69 -999 0.037988 0.200729 -1.244337
2008-12-19 08:05:21 51°13.783 2°55.683 -999 0.037783 0.199641 -1.244337
2008-12-19 08:05:26 51°13.792 2°55.675 -999 0.037783 0.199644 -1.244337
2008-12-19 08:05:31 51°13.8 2°55.667 -999 0.037783 0.199644 -1.244337
2008-12-19 08:05:36 51°13.809 2°55.659 -999 0.037371 0.197439 -1.244337
2008-12-19 08:05:40 51°13.816 2°55.652 -999 0.037371 0.197423 -1.244337
2008-12-19 08:05:45 51°13.825 2°55.645 -999 0.037268 0.196859 -1.244337
2008-12-19 08:05:50 51°13.834 2°55.637 -999 0.037783 0.199605 -1.244337
2008-12-19 08:05:54 51°13.841 2°55.631 -999 0.03768 0.199054 -1.209513
2008-12-19 08:06:00 51°13.852 2°55.622 -999 0.03768 0.199054 -1.209513
2008-12-19 08:06:05 51°13.861 2°55.614 -999 0.037988 0.200706 -1.244337
2008-12-19 08:06:09 51°13.868 2°55.608 -999 0.0384 0.202917 -1.244337
2008-12-19 08:06:14 51°13.878 2°55.601 -999 0.037371 0.197423 -1.209513
2008-12-19 08:06:20 51°13.889 2°55.592 -999 0.037062 0.195772 -1.244337
2008-12-19 08:06:25 51°13.898 2°55.584 -999 0.037474 0.197973 -1.244337
2008-12-19 08:06:29 51°13.905 2°55.578 -999 0.037474 0.197973 -1.244337
2008-12-19 08:06:34 51°13.915 2°55.571 -999 0.037062 0.195775 -1.209513
2008-12-19 08:06:40 51°13.926 2°55.562 -999 0.036959 0.195222 -1.244337
2008-12-19 08:06:45 51°13.935 2°55.555 -999 0.037474 0.19797 -1.244337
2008-12-19 08:06:49 51°13.943 2°55.549 -999 0.037268 0.196869 -1.244337
2008-12-19 08:06:54 51°13.952 2°55.542 -999 0.037268 0.196869 -1.244337
2008-12-19 08:07:00 51°13.964 2°55.533 -999 0.037474 0.19797 -1.244337
2008-12-19 08:07:05 51°13.974 2°55.525 -999 0.037268 0.196869 -1.244337
2008-12-19 08:07:09 51°13.981 2°55.519 -999 0.038297 0.202376 -1.244337
2008-12-19 08:07:14 51°13.992 2°55.511 -999 0.037577 0.198523 -1.209513
2008-12-19 08:07:20 51°14.004 2°55.501 -999 0.036856 0.194672 -1.244337
2008-12-19 08:07:25 51°14.014 2°55.493 -999 0.036856 0.194665 -1.244337
2008-12-19 08:07:29 51°14.022 2°55.486 -999 0.036856 0.194665 -1.244337
2008-12-19 08:07:34 51°14.033 2°55.477 -999 0.036342 0.191907 -1.244337
2008-12-19 08:07:40 51°14.045 2°55.466 -999 0.038297 0.202362 -1.244337
2008-12-19 08:07:45 51°14.056 2°55.458 -999 0.036753 0.194112 -1.209513
2008-12-19 08:07:49 51°14.064 2°55.451 -999 0.036342 0.191907 -1.244337
2008-12-19 08:07:54 51°14.075 2°55.442 -999 0.037062 0.195752 -1.244337
2008-12-19 08:08:00 51°14.088 2°55.431 -999 0.037062 0.195752 -1.244337
2008-12-19 08:08:05 51°14.099 2°55.422 -999 0.036342 0.191898 -1.209513
2008-12-19 08:08:09 51°14.107 2°55.415 -999 0.036239 0.191352 -1.244337
2008-12-19 08:08:14 51°14.118 2°55.406 -999 0.037371 0.197406 -1.244337
2008-12-19 08:08:20 51°14.131 2°55.395 -999 0.036445 0.192457 -1.244337
2008-12-19 08:08:25 51°14.142 2°55.386 -999 0.036445 0.192457 -1.244337
2008-12-19 08:08:29 51°14.15 2°55.378 -999 0.037268 0.196856 -1.244337
2008-12-19 08:08:34 51°14.161 2°55.369 -999 0.037474 0.197957 -1.209513
2008-12-19 08:08:40 51°14.174 2°55.357 -999 0.037783 0.199611 -1.244337
2008-12-19 08:08:45 51°14.184 2°55.347 -999 0.037988 0.200713 -1.244337
2008-12-19 08:08:49 51°14.193 2°55.338 -999 0.037371 0.197413 -1.209513
2008-12-19 08:08:54 51°14.203 2°55.326 -999 0.037371 0.197413 -1.209513
2008-12-19 08:09:00 51°14.214 2°55.312 -999 0.037371 0.197409 -1.209513
2008-12-19 08:09:05 51°14.224 2°55.299 -999 0.038915 0.205683 -1.244337
2008-12-19 08:09:09 51°14.231 2°55.289 -999 0.037885 0.200169 -1.209513
2008-12-19 08:09:14 51°14.24 2°55.275 -999 0.037885 0.200165 -1.244337
2008-12-19 08:09:20 51°14.251 2°55.258 -999 0.039017 0.206204 -1.209513
2008-12-19 08:09:25 51°14.259 2°55.243 -999 0.036959 0.195148 -1.244337
2008-12-19 08:09:29 51°14.266 2°55.232 -999 0.036959 0.195148 -1.244337
2008-12-19 08:09:34 51°14.274 2°55.216 -999 0.036548 0.192892 -1.244337
2008-12-19 08:09:40 51°14.284 2°55.198 -999 0.035827 0.18903 -1.209513
2008-12-19 08:09:45 51°14.292 2°55.183 -999 0.036651 0.193428 -1.209513
2008-12-19 08:09:49 51°14.298 2°55.171 -999 0.038812 0.205019 -1.209513
2008-12-19 08:09:54 51°14.306 2°55.155 -999 0.039635 0.209441 -1.209513
2008-12-19 08:10:00 51°14.316 2°55.136 -999 0.039635 0.209441 -1.209513
2008-12-19 08:10:05 51°14.323 2°55.12 -999 0.043031 0.227667 -1.244337
2008-12-19 08:10:10 51°14.331 2°55.103 -999 0.039635 0.209295 -1.209513
2008-12-19 08:10:15 51°14.338 2°55.085 -999 0.038297 0.202077 -1.209513
2008-12-19 08:10:20 51°14.346 2°55.068 -999 0.03912 0.20643 -1.244337
2008-12-19 08:10:25 51°14.353 2°55.049 -999 0.03912 0.20643 -1.244337
2008-12-19 08:10:30 51°14.36 2°55.031 -999 0.037577 0.198159 -1.209513
2008-12-19 08:10:35 51°14.368 2°55.013 -999 0.04159 0.219722 -1.209513
2008-12-19 08:10:40 51°14.375 2°54.993 -999 0.036548 0.19273 -1.209513
2008-12-19 08:10:45 51°14.382 2°54.974 -999 0.035724 0.188286 -1.244337
2008-12-19 08:10:49 51°14.388 2°54.959 -999 0.03912 0.206406 -1.244337
2008-12-19 08:10:55 51°14.399 2°54.936 -999 0.037474 0.197741 -1.244337
2008-12-19 08:11:00 51°14.409 2°54.918 -999 0.037474 0.197741 -1.244337
2008-12-19 08:11:05 51°14.42 2°54.901 -999 0.042208 0.223386 -1.209513
2008-12-19 08:11:10 51°14.431 2°54.884 -999 0.039635 0.20934 -1.244337
2008-12-19 08:11:14 51°14.44 2°54.871 -999 0.036753 0.193891 -1.209513
2008-12-19 08:11:20 51°14.455 2°54.852 -999 0.036548 0.19293 -1.209513
2008-12-19 08:11:25 51°14.468 2°54.837 -999 0.040355 0.213786 -1.209513
2008-12-19 08:11:30 51°14.482 2°54.823 -999 0.040355 0.213786 -1.209513
2008-12-19 08:11:34 51°14.493 2°54.812 -999 0.039635 0.210411 -1.209513
2008-12-19 08:11:40 51°14.509 2°54.795 -999 0.036753 0.194508 -1.244337
2008-12-19 08:11:45 51°14.523 2°54.78 -999 0.036239 0.191437 -1.209513
2008-12-19 08:11:50 51°14.536 2°54.766 -999 0.039429 0.208549 -1.244337
2008-12-19 08:11:55 51°14.55 2°54.752 -999 0.039429 0.20872 -1.244337
2008-12-19 08:12:00 51°14.564 2°54.738 -999 0.039429 0.20872 -1.244337
2008-12-19 08:12:05 51°14.578 2°54.724 -999 0.037474 0.198055 -1.209513
2008-12-19 08:12:10 51°14.593 2°54.711 -999 0.038915 0.205834 -1.209513
2008-12-19 08:12:15 51°14.607 2°54.697 -999 0.035519 0.187492 -1.209513
2008-12-19 08:12:20 51°14.621 2°54.683 -999 0.037268 0.196921 -1.209513
2008-12-19 08:12:25 51°14.635 2°54.67 -999 0.037268 0.196921 -1.209513
2008-12-19 08:12:30 51°14.649 2°54.656 -999 0.039738 0.210119 -1.209513
2008-12-19 08:12:35 51°14.663 2°54.644 -999 0.036753 0.194055 -1.209513
2008-12-19 08:12:40 51°14.677 2°54.63 -999 0.038915 0.20596 -1.209513
2008-12-19 08:12:45 51°14.691 2°54.617 -999 0.036239 0.191868 -1.209513
2008-12-19 08:12:50 51°14.706 2°54.604 -999 0.036033 0.190391 -1.209513
2008-12-19 08:12:55 51°14.72 2°54.592 -999 0.036239 0.191633 -1.209513
2008-12-19 08:13:00 51°14.735 2°54.58 -999 0.036239 0.191633 -1.209513
2008-12-19 08:13:05 51°14.749 2°54.567 -999 0.034695 0.183567 -1.209513
2008-12-19 08:13:09 51°14.761 2°54.558 -999 0.038812 0.205867 -1.209513
2008-12-19 08:13:15 51°14.778 2°54.543 -999 0.035519 0.188225 -1.209513
2008-12-19 08:13:20 51°14.793 2°54.532 -999 0.037885 0.200868 -1.209513
2008-12-19 08:13:25 51°14.808 2°54.52 -999 0.036136 0.191479 -1.244337
2008-12-19 08:13:30 51°14.822 2°54.508 -999 0.036136 0.191479 -1.244337
2008-12-19 08:13:34 51°14.834 2°54.498 -999 0.034592 0.183033 -1.209513
2008-12-19 08:13:40 51°14.852 2°54.483 -999 0.035004 0.185253 -1.244337
2008-12-19 08:13:45 51°14.866 2°54.471 -999 0.036239 0.192046 -1.209513
2008-12-19 08:13:50 51°14.881 2°54.458 -999 0.039223 0.208225 -1.209513
2008-12-19 08:13:54 51°14.893 2°54.449 -999 0.039223 0.208225 -1.209513
2008-12-19 08:14:00 51°14.91 2°54.434 -999 0.036856 0.195539 -1.209513
2008-12-19 08:14:05 51°14.925 2°54.423 -999 0.038297 0.203131 -1.209513
2008-12-19 08:14:10 51°14.94 2°54.411 -999 0.03521 0.186495 -1.209513
2008-12-19 08:14:15 51°14.955 2°54.399 -999 0.035622 0.188632 -1.209513
2008-12-19 08:14:20 51°14.969 2°54.387 -999 0.03521 0.186365 -1.209513
2008-12-19 08:14:25 51°14.984 2°54.374 -999 0.03521 0.186365 -1.209513
2008-12-19 08:14:30 51°14.998 2°54.363 -999 0.036342 0.192444 -1.209513
2008-12-19 08:14:35 51°15.013 2°54.351 -999 0.037062 0.196412 -1.209513
2008-12-19 08:14:40 51°15.028 2°54.339 -999 0.038194 0.202547 -1.244337
2008-12-19 08:14:45 51°15.043 2°54.327 -999 0.036753 0.194763 -1.209513
2008-12-19 08:14:50 51°15.058 2°54.314 -999 0.039841 0.211294 -1.209513
2008-12-19 08:14:55 51°15.072 2°54.303 -999 0.034798 0.18405 -1.209513
2008-12-19 08:15:00 51°15.087 2°54.29 -999 0.034798 0.18405 -1.209513
2008-12-19 08:15:05 51°15.102 2°54.276 -999 0.034387 0.181829 -1.209513
2008-12-19 08:15:10 51°15.116 2°54.263 -999 0.034284 0.181465 -1.209513
2008-12-19 08:15:15 51°15.131 2°54.25 -999 0.03593 0.190367 -1.209513
2008-12-19 08:15:20 51°15.145 2°54.237 -999 0.034901 0.184773 -1.209513
2008-12-19 08:15:25 51°15.16 2°54.224 -999 0.035107 0.185932 -1.209513
2008-12-19 08:15:29 51°15.171 2°54.213 -999 0.035107 0.185932 -1.209513
2008-12-19 08:15:34 51°15.186 2°54.2 -999 0.034695 0.183721 -1.209513
2008-12-19 08:15:40 51°15.203 2°54.184 -999 0.034181 0.180904 -1.209513
2008-12-19 08:15:45 51°15.217 2°54.17 -999 0.035827 0.189768 -1.209513
2008-12-19 08:15:50 51°15.231 2°54.157 -999 0.033769 0.178848 -1.209513
2008-12-19 08:15:54 51°15.243 2°54.146 -999 0.033769 0.178848 -1.209513
2008-12-19 08:16:00 51°15.26 2°54.13 -999 0.034592 0.183296 -1.209513
2008-12-19 08:16:05 51°15.275 2°54.116 -999 0.036651 0.194308 -1.209513
2008-12-19 08:16:10 51°15.289 2°54.103 -999 0.034592 0.183202 -1.209513
2008-12-19 08:16:14 51°15.3 2°54.092 -999 0.034284 0.181405 -1.209513
2008-12-19 08:16:20 51°15.317 2°54.075 -999 0.035519 0.188144 -1.209513
2008-12-19 08:16:25 51°15.331 2°54.061 -999 0.038091 0.202142 -1.209513
2008-12-19 08:16:30 51°15.345 2°54.048 -999 0.038091 0.202142 -1.209513
2008-12-19 08:16:35 51°15.36 2°54.034 -999 0.039223 0.20803 -1.209513
2008-12-19 08:16:40 51°15.374 2°54.021 -999 0.033975 0.179882 -1.209513
2008-12-19 08:16:45 51°15.388 2°54.007 -999 0.036445 0.193079 -1.209513
2008-12-19 08:16:50 51°15.403 2°53.994 -999 0.03521 0.186544 -1.209513
2008-12-19 08:16:55 51°15.417 2°53.979 -999 0.034284 0.181693 -1.209513
2008-12-19 08:17:00 51°15.431 2°53.966 -999 0.034284 0.181693 -1.209513
2008-12-19 08:17:05 51°15.445 2°53.952 -999 0.036239 0.192225 -1.209513
2008-12-19 08:17:10 51°15.459 2°53.938 -999 0.036548 0.193727 -1.174688
2008-12-19 08:17:15 51°15.472 2°53.924 -999 0.037885 0.200811 -1.209513
2008-12-19 08:17:20 51°15.487 2°53.912 -999 0.037988 0.201227 -1.209513
2008-12-19 08:17:25 51°15.501 2°53.9 -999 0.039532 0.209402 -1.209513
2008-12-19 08:17:29 51°15.513 2°53.89 -999 0.039532 0.209402 -1.209513
2008-12-19 08:17:35 51°15.531 2°53.877 -999 0.041178 0.218551 -1.209513
2008-12-19 08:17:40 51°15.545 2°53.867 -999 0.037474 0.198585 -1.209513
2008-12-19 08:17:45 51°15.56 2°53.856 -999 0.036342 0.192588 -1.209513
2008-12-19 08:17:50 51°15.575 2°53.845 -999 0.038915 0.206583 -1.209513
2008-12-19 08:17:55 51°15.59 2°53.835 -999 0.036651 0.194211 -1.209513
2008-12-19 08:18:00 51°15.605 2°53.824 -999 0.036651 0.194211 -1.209513
2008-12-19 08:18:05 51°15.62 2°53.814 -999 0.03593 0.190455 -1.209513
2008-12-19 08:18:10 51°15.635 2°53.803 -999 0.034078 0.180539 -1.209513
2008-12-19 08:18:14 51°15.647 2°53.794 -999 0.035827 0.189844 -1.209513
2008-12-19 08:18:20 51°15.665 2°53.781 -999 0.034798 0.184491 -1.209513
2008-12-19 08:18:25 51°15.68 2°53.77 -999 0.035724 0.189471 -1.209513
2008-12-19 08:18:30 51°15.695 2°53.76 -999 0.035724 0.189471 -1.209513
2008-12-19 08:18:35 51°15.71 2°53.749 -999 0.03449 0.182884 -1.209513
2008-12-19 08:18:40 51°15.725 2°53.739 -999 0.033358 0.176819 -1.209513
2008-12-19 08:18:45 51°15.741 2°53.728 -999 0.036548 0.193872 -1.209513
2008-12-19 08:18:50 51°15.756 2°53.718 -999 0.035519 0.188306 -1.209513
2008-12-19 08:18:54 51°15.768 2°53.71 -999 0.034901 0.184929 -1.209513
2008-12-19 08:19:00 51°15.786 2°53.697 -999 0.034901 0.184929 -1.209513
2008-12-19 08:19:05 51°15.801 2°53.686 -999 0.034078 0.180533 -1.174688
2008-12-19 08:19:09 51°15.813 2°53.677 -999 0.03521 0.186609 -1.209513
2008-12-19 08:19:14 51°15.828 2°53.666 -999 0.035827 0.189844 -1.209513
2008-12-19 08:19:20 51°15.846 2°53.653 -999 0.035313 0.187178 -1.209513
2008-12-19 08:19:25 51°15.861 2°53.642 -999 0.035313 0.187178 -1.209513
2008-12-19 08:19:29 51°15.873 2°53.632 -999 0.033769 0.178957 -1.209513
2008-12-19 08:19:34 51°15.888 2°53.621 -999 0.03274 0.17344 -1.209513
2008-12-19 08:19:40 51°15.905 2°53.607 -999 0.032946 0.174512 -1.209513
2008-12-19 08:19:45 51°15.92 2°53.595 -999 0.035416 0.187817 -1.209513
2008-12-19 08:19:50 51°15.935 2°53.583 -999 0.036651 0.194405 -1.174688
2008-12-19 08:19:55 51°15.95 2°53.572 -999 0.034901 0.185082 -1.209513
2008-12-19 08:20:00 51°15.964 2°53.56 -999 0.034901 0.185082 -1.209513
2008-12-19 08:20:05 51°15.979 2°53.548 -999 0.03521 0.186807 -1.209513
2008-12-19 08:20:10 51°15.994 2°53.536 -999 0.033769 0.17904 -1.209513
2008-12-19 08:20:15 51°16.009 2°53.524 -999 0.034695 0.183958 -1.209513
2008-12-19 08:20:20 51°16.024 2°53.512 -999 0.036959 0.196098 -1.209513
2008-12-19 08:20:25 51°16.038 2°53.5 -999 0.03521 0.186714 -1.209513
2008-12-19 08:20:30 51°16.053 2°53.49 -999 0.03521 0.186714 -1.209513
2008-12-19 08:20:34 51°16.065 2°53.48 -999 0.035107 0.186138 -1.209513
2008-12-19 08:20:40 51°16.083 2°53.466 -999 0.034387 0.18227 -1.209513
2008-12-19 08:20:45 51°16.099 2°53.455 -999 0.039738 0.211044 -1.209513
2008-12-19 08:20:50 51°16.113 2°53.444 -999 0.036651 0.194292 -1.209513
2008-12-19 08:20:55 51°16.128 2°53.432 -999 0.036651 0.194292 -1.209513
2008-12-19 08:21:00 51°16.143 2°53.42 -999 0.035519 0.188406 -1.209513
2008-12-19 08:21:05 51°16.158 2°53.408 -999 0.034387 0.182539 -1.209513
2008-12-19 08:21:10 51°16.173 2°53.397 -999 0.038091 0.20243 -1.209513
2008-12-19 08:21:15 51°16.188 2°53.386 -999 0.034695 0.184092 -1.174688
2008-12-19 08:21:20 51°16.203 2°53.373 -999 0.034284 0.181807 -1.209513
2008-12-19 08:21:25 51°16.218 2°53.362 -999 0.034798 0.184577 -1.209513
2008-12-19 08:21:30 51°16.233 2°53.35 -999 0.034798 0.184577 -1.209513
2008-12-19 08:21:35 51°16.248 2°53.338 -999 0.034284 0.181813 -1.209513
2008-12-19 08:21:40 51°16.262 2°53.326 -999 0.036239 0.192285 -1.209513
2008-12-19 08:21:45 51°16.277 2°53.314 -999 0.036753 0.194938 -1.209513
2008-12-19 08:21:50 51°16.291 2°53.301 -999 0.035313 0.187129 -1.174688
2008-12-19 08:21:55 51°16.306 2°53.289 -999 0.034901 0.185134 -1.209513
2008-12-19 08:22:00 51°16.321 2°53.278 -999 0.034901 0.185134 -1.209513
2008-12-19 08:22:05 51°16.335 2°53.266 -999 0.03593 0.19054 -1.209513
2008-12-19 08:22:09 51°16.347 2°53.256 -999 0.033872 0.179457 -1.209513
2008-12-19 08:22:15 51°16.364 2°53.241 -999 0.034284 0.181684 -1.209513
2008-12-19 08:22:20 51°16.379 2°53.23 -999 0.034181 0.181169 -1.209513
2008-12-19 08:22:25 51°16.393 2°53.217 -999 0.037783 0.200599 -1.209513
2008-12-19 08:22:30 51°16.408 2°53.206 -999 0.037783 0.200599 -1.209513
2008-12-19 08:22:35 51°16.423 2°53.194 -999 0.03521 0.186754 -1.209513
2008-12-19 08:22:40 51°16.437 2°53.183 -999 0.036033 0.191057 -1.209513
2008-12-19 08:22:45 51°16.452 2°53.171 -999 0.034284 0.181765 -1.209513
2008-12-19 08:22:50 51°16.467 2°53.159 -999 0.035519 0.188359 -1.209513
2008-12-19 08:22:54 51°16.478 2°53.149 -999 0.035519 0.188359 -1.209513
2008-12-19 08:23:00 51°16.496 2°53.134 -999 0.033666 0.178472 -1.209513
2008-12-19 08:23:05 51°16.51 2°53.122 -999 0.033666 0.17851 -1.209513
2008-12-19 08:23:10 51°16.524 2°53.11 -999 0.034078 0.180744 -1.209513
2008-12-19 08:23:15 51°16.539 2°53.097 -999 0.034078 0.180759 -1.209513
2008-12-19 08:23:20 51°16.553 2°53.085 -999 0.032946 0.174647 -1.209513
2008-12-19 08:23:25 51°16.568 2°53.073 -999 0.03202 0.169658 -1.209513
2008-12-19 08:23:30 51°16.582 2°53.06 -999 0.03202 0.169658 -1.209513
2008-12-19 08:23:35 51°16.597 2°53.048 -999 0.033049 0.175248 -1.209513
2008-12-19 08:23:40 51°16.611 2°53.035 -999 0.03274 0.173654 -1.209513
2008-12-19 08:23:45 51°16.626 2°53.023 -999 0.035724 0.189651 -1.174688
2008-12-19 08:23:50 51°16.641 2°53.011 -999 0.034695 0.184083 -1.209513
2008-12-19 08:23:55 51°16.655 2°52.999 -999 0.037268 0.197734 -1.209513
2008-12-19 08:24:00 51°16.67 2°52.988 -999 0.037268 0.197734 -1.209513
2008-12-19 08:24:05 51°16.685 2°52.976 -999 0.036342 0.192767 -1.174688
2008-12-19 08:24:10 51°16.699 2°52.964 -999 0.037268 0.197813 -1.174688
2008-12-19 08:24:15 51°16.713 2°52.952 -999 0.036959 0.196219 -1.174688
2008-12-19 08:24:20 51°16.728 2°52.94 -999 0.036856 0.195692 -1.174688
2008-12-19 08:24:25 51°16.742 2°52.928 -999 0.035827 0.190052 -1.209513
2008-12-19 08:24:29 51°16.754 2°52.919 -999 0.035827 0.190052 -1.209513
2008-12-19 08:24:35 51°16.771 2°52.905 -999 0.039532 0.210057 -1.174688
2008-12-19 08:24:40 51°16.786 2°52.894 -999 0.03593 0.190613 -1.209513
2008-12-19 08:24:45 51°16.8 2°52.882 -999 0.03521 0.186794 -1.209513
2008-12-19 08:24:50 51°16.814 2°52.87 -999 0.036959 0.196222 -1.174688
2008-12-19 08:24:54 51°16.826 2°52.86 -999 0.036959 0.196222 -1.174688
2008-12-19 08:25:00 51°16.843 2°52.845 -999 0.03346 0.17753 -1.209513
2008-12-19 08:25:05 51°16.857 2°52.832 -999 0.033049 0.175277 -1.209513
2008-12-19 08:25:10 51°16.872 2°52.819 -999 0.034798 0.184598 -1.209513
2008-12-19 08:25:14 51°16.884 2°52.809 -999 0.036753 0.195093 -1.174688
2008-12-19 08:25:20 51°16.901 2°52.795 -999 0.037062 0.196743 -1.209513
2008-12-19 08:25:25 51°16.916 2°52.782 -999 0.036856 0.195611 -1.174688
2008-12-19 08:25:30 51°16.93 2°52.77 -999 0.036856 0.195611 -1.174688
2008-12-19 08:25:35 51°16.945 2°52.758 -999 0.03593 0.19073 -1.174688
2008-12-19 08:25:40 51°16.959 2°52.745 -999 0.038297 0.203552 -1.174688
2008-12-19 08:25:45 51°16.974 2°52.733 -999 0.033872 0.179703 -1.209513
2008-12-19 08:25:50 51°16.989 2°52.72 -999 0.03449 0.18299 -1.174688
2008-12-19 08:25:55 51°17.004 2°52.708 -999 0.03521 0.186862 -1.174688
2008-12-19 08:26:00 51°17.018 2°52.696 -999 0.03521 0.186862 -1.174688
2008-12-19 08:26:05 51°17.033 2°52.683 -999 0.032946 0.174716 -1.209513
2008-12-19 08:26:10 51°17.048 2°52.67 -999 0.037268 0.197826 -1.174688
2008-12-19 08:26:15 51°17.062 2°52.658 -999 0.035107 0.186215 -1.174688
2008-12-19 08:26:20 51°17.076 2°52.645 -999 0.036753 0.195074 -1.209513
2008-12-19 08:26:25 51°17.091 2°52.632 -999 0.036753 0.195074 -1.209513
2008-12-19 08:26:29 51°17.102 2°52.623 -999 0.036959 0.19618 -1.174688
2008-12-19 08:26:35 51°17.119 2°52.608 -999 0.036239 0.192257 -1.209513
2008-12-19 08:26:40 51°17.134 2°52.596 -999 0.040252 0.213883 -1.174688
2008-12-19 08:26:45 51°17.148 2°52.584 -999 0.037577 0.199466 -1.174688
2008-12-19 08:26:50 51°17.163 2°52.572 -999 0.035004 0.185747 -1.174688
2008-12-19 08:26:55 51°17.177 2°52.56 -999 0.034592 0.183587 -1.174688
2008-12-19 08:27:00 51°17.191 2°52.548 -999 0.034592 0.183587 -1.174688
2008-12-19 08:27:05 51°17.206 2°52.536 -999 0.036342 0.192982 -1.174688
2008-12-19 08:27:10 51°17.22 2°52.524 -999 0.04159 0.221292 -1.209513
2008-12-19 08:27:14 51°17.232 2°52.515 -999 0.037474 0.198956 -1.174688
2008-12-19 08:27:20 51°17.25 2°52.501 -999 0.036342 0.192905 -1.174688
2008-12-19 08:27:25 51°17.264 2°52.489 -999 0.035622 0.189139 -1.174688
2008-12-19 08:27:30 51°17.279 2°52.477 -999 0.035622 0.189139 -1.174688
2008-12-19 08:27:35 51°17.294 2°52.465 -999 0.037165 0.197477 -1.209513
2008-12-19 08:27:40 51°17.309 2°52.454 -999 0.035313 0.187514 -1.174688
2008-12-19 08:27:45 51°17.323 2°52.443 -999 0.037783 0.20074 -1.209513
2008-12-19 08:27:50 51°17.338 2°52.433 -999 0.035107 0.186317 -1.174688
2008-12-19 08:27:55 51°17.354 2°52.422 -999 0.035107 0.186298 -1.174688
2008-12-19 08:28:00 51°17.368 2°52.411 -999 0.035107 0.186298 -1.174688
2008-12-19 08:28:05 51°17.383 2°52.399 -999 0.035107 0.186385 -1.209513
2008-12-19 08:28:10 51°17.398 2°52.389 -999 0.035724 0.189632 -1.174688
2008-12-19 08:28:15 51°17.414 2°52.378 -999 0.034592 0.183535 -1.174688
2008-12-19 08:28:20 51°17.429 2°52.368 -999 0.035004 0.185694 -1.174688
2008-12-19 08:28:25 51°17.444 2°52.356 -999 0.035004 0.185694 -1.174688
2008-12-19 08:28:30 51°17.46 2°52.346 -999 0.032946 0.174719 -1.174688
2008-12-19 08:28:35 51°17.475 2°52.336 -999 0.036651 0.194537 -1.174688
2008-12-19 08:28:40 51°17.49 2°52.325 -999 0.039635 0.210704 -1.174688
2008-12-19 08:28:45 51°17.506 2°52.316 -999 0.035519 0.188521 -1.174688
2008-12-19 08:28:49 51°17.518 2°52.307 -999 0.034901 0.185174 -1.174688
2008-12-19 08:28:55 51°17.536 2°52.294 -999 0.034387 0.182454 -1.174688
2008-12-19 08:29:00 51°17.552 2°52.283 -999 0.034387 0.182454 -1.174688
2008-12-19 08:29:05 51°17.567 2°52.273 -999 0.035724 0.18961 -1.174688
2008-12-19 08:29:10 51°17.583 2°52.263 -999 0.044883 0.239063 -1.174688
2008-12-19 08:29:15 51°17.597 2°52.253 -999 0.039841 0.21174 -1.174688
2008-12-19 08:29:20 51°17.612 2°52.242 -999 0.038297 0.203413 -1.174688
2008-12-19 08:29:25 51°17.628 2°52.231 -999 0.04087 0.217356 -1.174688
2008-12-19 08:29:30 51°17.642 2°52.221 -999 0.04087 0.217356 -1.174688
2008-12-19 08:29:34 51°17.655 2°52.212 -999 0.035827 0.190232 -1.174688
2008-12-19 08:29:40 51°17.673 2°52.198 -999 0.034901 0.185238 -1.174688
2008-12-19 08:29:45 51°17.688 2°52.187 -999 0.036239 0.192375 -1.174688
2008-12-19 08:29:50 51°17.703 2°52.175 -999 0.034592 0.183532 -1.174688
2008-12-19 08:29:55 51°17.718 2°52.164 -999 0.037474 0.199029 -1.174688
2008-12-19 08:30:00 51°17.733 2°52.153 -999 0.037474 0.199029 -1.174688
2008-12-19 08:30:05 51°17.749 2°52.142 -999 0.036445 0.193551 -1.174688
2008-12-19 08:30:10 51°17.764 2°52.13 -999 0.038091 0.202345 -1.174688
2008-12-19 08:30:15 51°17.779 2°52.119 -999 0.036959 0.196219 -1.174688
2008-12-19 08:30:20 51°17.794 2°52.107 -999 0.038503 0.204524 -1.174688
2008-12-19 08:30:25 51°17.81 2°52.095 -999 0.03768 0.200093 -1.174688
2008-12-19 08:30:30 51°17.825 2°52.084 -999 0.03768 0.200093 -1.174688
2008-12-19 08:30:35 51°17.84 2°52.073 -999 0.040664 0.216185 -1.174688
2008-12-19 08:30:40 51°17.855 2°52.061 -999 0.039738 0.211217 -1.174688
2008-12-19 08:30:45 51°17.87 2°52.05 -999 0.038091 0.202399 -1.174688
2008-12-19 08:30:50 51°17.885 2°52.038 -999 0.034181 0.181343 -1.174688
2008-12-19 08:30:55 51°17.899 2°52.026 -999 0.036239 0.192365 -1.174688
2008-12-19 08:31:00 51°17.914 2°52.015 -999 0.036239 0.192365 -1.174688
2008-12-19 08:31:05 51°17.929 2°52.002 -999 0.036239 0.192378 -1.139864
2008-12-19 08:31:09 51°17.941 2°51.993 -999 0.041076 0.218435 -1.139864
2008-12-19 08:31:15 51°17.959 2°51.979 -999 0.039635 0.210602 -1.139864
2008-12-19 08:31:20 51°17.974 2°51.968 -999 0.035107 0.186311 -1.174688
2008-12-19 08:31:25 51°17.989 2°51.956 -999 0.037062 0.196841 -1.174688
2008-12-19 08:31:30 51°18.004 2°51.945 -999 0.037062 0.196841 -1.174688
2008-12-19 08:31:34 51°18.016 2°51.936 -999 0.034078 0.180813 -1.174688
2008-12-19 08:31:40 51°18.034 2°51.921 -999 0.034181 0.181319 -1.174688
2008-12-19 08:31:45 51°18.049 2°51.91 -999 0.037268 0.197875 -1.174688
2008-12-19 08:31:50 51°18.064 2°51.899 -999 0.041796 0.222324 -1.174688
2008-12-19 08:31:54 51°18.076 2°51.89 -999 0.041796 0.222324 -1.174688
2008-12-19 08:32:00 51°18.094 2°51.877 -999 0.040252 0.214005 -1.174688
2008-12-19 08:32:05 51°18.109 2°51.866 -999 0.03593 0.190768 -1.174688
2008-12-19 08:32:10 51°18.123 2°51.855 -999 0.036548 0.194098 -1.174688
2008-12-19 08:32:15 51°18.138 2°51.844 -999 0.034387 0.182496 -1.174688
2008-12-19 08:32:20 51°18.153 2°51.832 -999 0.039532 0.210166 -1.174688
2008-12-19 08:32:25 51°18.168 2°51.821 -999 0.036136 0.191905 -1.174688
2008-12-19 08:32:30 51°18.183 2°51.81 -999 0.036136 0.191905 -1.174688
2008-12-19 08:32:35 51°18.198 2°51.799 -999 0.038915 0.206863 -1.174688
2008-12-19 08:32:40 51°18.212 2°51.787 -999 0.037165 0.197431 -1.174688
2008-12-19 08:32:45 51°18.227 2°51.775 -999 0.04797 0.255957 -1.174688
2008-12-19 08:32:50 51°18.241 2°51.765 -999 0.040149 0.2135 -1.139864
2008-12-19 08:32:54 51°18.253 2°51.755 -999 0.041281 0.219596 -1.174688
2008-12-19 08:33:00 51°18.271 2°51.741 -999 0.041281 0.219596 -1.174688
2008-12-19 08:33:05 51°18.285 2°51.729 -999 0.039841 0.211836 -1.174688
2008-12-19 08:33:09 51°18.297 2°51.719 -999 0.034798 0.18472 -1.209513
2008-12-19 08:33:15 51°18.314 2°51.704 -999 0.035416 0.188032 -1.174688
2008-12-19 08:33:20 51°18.329 2°51.692 -999 0.035313 0.187477 -1.174688
2008-12-19 08:33:25 51°18.344 2°51.679 -999 0.03593 0.190794 -1.174688
2008-12-19 08:33:29 51°18.356 2°51.669 -999 0.03593 0.190794 -1.174688
2008-12-19 08:33:35 51°18.374 2°51.656 -999 0.038091 0.20243 -1.174688
2008-12-19 08:33:40 51°18.389 2°51.644 -999 0.036548 0.194146 -1.174688
2008-12-19 08:33:45 51°18.404 2°51.632 -999 0.036959 0.19635 -1.174688
2008-12-19 08:33:50 51°18.42 2°51.62 -999 0.035827 0.190238 -1.174688
2008-12-19 08:33:55 51°18.435 2°51.608 -999 0.035724 0.189667 -1.174688
2008-12-19 08:34:00 51°18.45 2°51.596 -999 0.035724 0.189667 -1.174688
2008-12-19 08:34:05 51°18.465 2°51.585 -999 0.03449 0.183048 -1.174688
2008-12-19 08:34:10 51°18.481 2°51.573 -999 0.034284 0.18193 -1.174688
2008-12-19 08:34:14 51°18.492 2°51.563 -999 0.033358 0.176968 -1.174688
2008-12-19 08:34:20 51°18.511 2°51.549 -999 0.037474 0.199102 -1.174688
2008-12-19 08:34:25 51°18.526 2°51.537 -999 0.035416 0.188054 -1.174688
2008-12-19 08:34:30 51°18.541 2°51.525 -999 0.035416 0.188054 -1.174688
2008-12-19 08:34:35 51°18.557 2°51.513 -999 0.037371 0.198574 -1.174688
2008-12-19 08:34:40 51°18.572 2°51.501 -999 0.033563 0.178133 -1.174688
2008-12-19 08:34:45 51°18.587 2°51.489 -999 0.035107 0.186397 -1.174688
2008-12-19 08:34:50 51°18.603 2°51.477 -999 0.035724 0.189692 -1.174688
2008-12-19 08:34:55 51°18.618 2°51.465 -999 0.036651 0.194651 -1.174688
2008-12-19 08:35:00 51°18.633 2°51.453 -999 0.036651 0.194651 -1.174688
2008-12-19 08:35:05 51°18.648 2°51.441 -999 0.040355 0.214615 -1.174688
2008-12-19 08:35:10 51°18.663 2°51.43 -999 0.041179 0.219087 -1.174688
2008-12-19 08:35:15 51°18.678 2°51.419 -999 0.037165 0.197424 -1.174688
2008-12-19 08:35:20 51°18.692 2°51.407 -999 0.036033 0.191327 -1.174688
2008-12-19 08:35:25 51°18.707 2°51.396 -999 0.036033 0.191327 -1.174688
2008-12-19 08:35:30 51°18.722 2°51.385 -999 0.033769 0.179208 -1.174688
2008-12-19 08:35:35 51°18.736 2°51.373 -999 0.034695 0.184153 -1.174688
2008-12-19 08:35:40 51°18.751 2°51.362 -999 0.035107 0.18636 -1.174688
2008-12-19 08:35:45 51°18.766 2°51.35 -999 0.037885 0.201338 -1.174688
2008-12-19 08:35:50 51°18.78 2°51.339 -999 0.034387 0.18256 -1.174688
2008-12-19 08:35:55 51°18.795 2°51.328 -999 0.03274 0.173748 -1.174688
2008-12-19 08:36:00 51°18.81 2°51.316 -999 0.03274 0.173748 -1.174688
2008-12-19 08:36:05 51°18.824 2°51.306 -999 0.040252 0.214124 -1.174688
2008-12-19 08:36:10 51°18.838 2°51.294 -999 0.038915 0.206881 -1.174688
2008-12-19 08:36:14 51°18.85 2°51.285 -999 0.035724 0.189717 -1.174688
2008-12-19 08:36:20 51°18.867 2°51.271 -999 0.039532 0.210251 -1.174688
2008-12-19 08:36:25 51°18.882 2°51.26 -999 0.038606 0.205237 -1.174688
2008-12-19 08:36:30 51°18.897 2°51.249 -999 0.038606 0.205237 -1.174688
2008-12-19 08:36:35 51°18.912 2°51.238 -999 0.041076 0.218568 -1.209513
2008-12-19 08:36:40 51°18.926 2°51.228 -999 0.036754 0.195236 -1.174688
2008-12-19 08:36:45 51°18.94 2°51.217 -999 0.037062 0.196907 -1.174688
2008-12-19 08:36:50 51°18.954 2°51.205 -999 0.036651 0.194686 -1.174688
2008-12-19 08:36:55 51°18.969 2°51.194 -999 0.035622 0.189168 -1.174688
2008-12-19 08:37:00 51°18.983 2°51.182 -999 0.035622 0.189168 -1.174688
2008-12-19 08:37:05 51°18.998 2°51.171 -999 0.039326 0.209091 -1.174688
2008-12-19 08:37:10 51°19.012 2°51.159 -999 0.03912 0.20796 -1.174688
2008-12-19 08:37:15 51°19.027 2°51.147 -999 0.037988 0.201885 -1.174688
2008-12-19 08:37:20 51°19.041 2°51.136 -999 0.037165 0.197454 -1.174688
2008-12-19 08:37:25 51°19.056 2°51.125 -999 0.04159 0.221348 -1.174688
2008-12-19 08:37:30 51°19.071 2°51.114 -999 0.04159 0.221348 -1.174688
2008-12-19 08:37:35 51°19.085 2°51.102 -999 0.03768 0.200213 -1.174688
2008-12-19 08:37:40 51°19.1 2°51.09 -999 0.036239 0.192497 -1.174688
2008-12-19 08:37:45 51°19.114 2°51.079 -999 0.038503 0.204665 -1.174688
2008-12-19 08:37:50 51°19.129 2°51.067 -999 0.038709 0.205798 -1.174688
2008-12-19 08:37:55 51°19.144 2°51.055 -999 0.035622 0.189158 -1.174688
2008-12-19 08:38:00 51°19.158 2°51.044 -999 0.035622 0.189158 -1.174688
2008-12-19 08:38:05 51°19.173 2°51.032 -999 0.035724 0.189701 -1.174688
2008-12-19 08:38:10 51°19.188 2°51.021 -999 0.033666 0.178687 -1.174688
2008-12-19 08:38:15 51°19.203 2°51.01 -999 0.038915 0.206926 -1.174688
2008-12-19 08:38:20 51°19.218 2°50.999 -999 0.033152 0.175972 -1.174688
2008-12-19 08:38:25 51°19.233 2°50.987 -999 0.034387 0.18256 -1.174688
2008-12-19 08:38:30 51°19.247 2°50.975 -999 0.034387 0.18256 -1.174688
2008-12-19 08:38:34 51°19.259 2°50.967 -999 0.036239 0.192506 -1.174688
2008-12-19 08:38:40 51°19.277 2°50.953 -999 0.033872 0.179777 -1.174688
2008-12-19 08:38:45 51°19.291 2°50.942 -999 0.03449 0.183096 -1.174688
2008-12-19 08:38:50 51°19.306 2°50.93 -999 0.032946 0.174851 -1.174688
2008-12-19 08:38:55 51°19.321 2°50.918 -999 0.037165 0.197493 -1.174688
2008-12-19 08:39:00 51°19.335 2°50.907 -999 0.037165 0.197493 -1.174688
2008-12-19 08:39:05 51°19.35 2°50.894 -999 0.038503 0.204685 -1.174688
2008-12-19 08:39:10 51°19.365 2°50.883 -999 0.03449 0.183133 -1.174688
2008-12-19 08:39:15 51°19.379 2°50.871 -999 0.039944 0.212474 -1.174688
2008-12-19 08:39:20 51°19.394 2°50.861 -999 0.036548 0.194149 -1.174688
2008-12-19 08:39:25 51°19.408 2°50.847 -999 0.034798 0.184782 -1.174688
2008-12-19 08:39:30 51°19.423 2°50.836 -999 0.034798 0.184782 -1.174688
2008-12-19 08:39:35 51°19.437 2°50.824 -999 0.035519 0.188659 -1.174688
2008-12-19 08:39:40 51°19.452 2°50.812 -999 0.037885 0.201385 -1.174688
2008-12-19 08:39:45 51°19.466 2°50.801 -999 0.035313 0.187511 -1.174688
2008-12-19 08:39:50 51°19.481 2°50.789 -999 0.038091 0.202487 -1.174688
2008-12-19 08:39:55 51°19.496 2°50.778 -999 0.034901 0.185312 -1.174688
2008-12-19 08:40:00 51°19.51 2°50.765 -999 0.034901 0.185312 -1.174688
2008-12-19 08:40:05 51°19.525 2°50.754 -999 0.033872 0.17981 -1.174688
2008-12-19 08:40:09 51°19.537 2°50.744 -999 0.033872 0.179816 -1.174688
2008-12-19 08:40:15 51°19.554 2°50.729 -999 0.035004 0.185892 -1.174688
2008-12-19 08:40:20 51°19.569 2°50.717 -999 0.037783 0.200831 -1.174688
2008-12-19 08:40:25 51°19.584 2°50.704 -999 0.035416 0.1881 -1.174688
2008-12-19 08:40:30 51°19.598 2°50.692 -999 0.035416 0.1881 -1.174688
2008-12-19 08:40:35 51°19.613 2°50.679 -999 0.035622 0.189187 -1.174688
2008-12-19 08:40:40 51°19.628 2°50.667 -999 0.036239 0.192516 -1.174688
2008-12-19 08:40:45 51°19.642 2°50.655 -999 0.03521 0.18699 -1.174688
2008-12-19 08:40:50 51°19.657 2°50.643 -999 0.033872 0.179813 -1.174688
2008-12-19 08:40:54 51°19.668 2°50.632 -999 0.033872 0.179813 -1.174688
2008-12-19 08:41:00 51°19.686 2°50.618 -999 0.032534 0.172657 -1.139864
2008-12-19 08:41:05 51°19.701 2°50.605 -999 0.03274 0.173777 -1.174688
2008-12-19 08:41:10 51°19.715 2°50.593 -999 0.034078 0.180972 -1.174688
2008-12-19 08:41:15 51°19.73 2°50.581 -999 0.034901 0.185383 -1.174688
2008-12-19 08:41:20 51°19.745 2°50.57 -999 0.03449 0.183117 -1.174688
2008-12-19 08:41:25 51°19.76 2°50.558 -999 0.032637 0.173212 -1.174688
2008-12-19 08:41:30 51°19.775 2°50.548 -999 0.032637 0.173212 -1.174688
2008-12-19 08:41:35 51°19.79 2°50.537 -999 0.035519 0.188665 -1.139864
2008-12-19 08:41:40 51°19.806 2°50.528 -999 0.035622 0.189237 -1.174688
2008-12-19 08:41:45 51°19.821 2°50.518 -999 0.032123 0.170478 -1.174688
2008-12-19 08:41:50 51°19.836 2°50.508 -999 0.032946 0.174868 -1.174688
2008-12-19 08:41:55 51°19.852 2°50.499 -999 0.030991 0.164452 -1.174688
2008-12-19 08:42:00 51°19.868 2°50.49 -999 0.030991 0.164452 -1.174688
2008-12-19 08:42:05 51°19.884 2°50.48 -999 0.031299 0.166084 -1.174688
2008-12-19 08:42:10 51°19.899 2°50.472 -999 0.031917 0.169376 -1.174688
2008-12-19 08:42:15 51°19.915 2°50.462 -999 0.03202 0.169937 -1.174688
2008-12-19 08:42:20 51°19.931 2°50.453 -999 0.031299 0.166087 -1.174688
2008-12-19 08:42:25 51°19.947 2°50.444 -999 0.033358 0.177085 -1.174688
2008-12-19 08:42:30 51°19.962 2°50.435 -999 0.033358 0.177085 -1.174688
2008-12-19 08:42:35 51°19.978 2°50.426 -999 0.031402 0.166644 -1.174688
2008-12-19 08:42:40 51°19.994 2°50.416 -999 0.034078 0.180951 -1.174688
2008-12-19 08:42:45 51°20.01 2°50.407 -999 0.031814 0.168849 -1.174688
2008-12-19 08:42:50 51°20.025 2°50.397 -999 0.034181 0.18152 -1.174688
2008-12-19 08:42:55 51°20.041 2°50.389 -999 0.034387 0.182611 -1.174688
2008-12-19 08:43:00 51°20.057 2°50.38 -999 0.034387 0.182611 -1.174688
2008-12-19 08:43:05 51°20.072 2°50.371 -999 0.033563 0.178198 -1.174688
2008-12-19 08:43:10 51°20.087 2°50.363 -999 0.037062 0.196972 -1.244337
2008-12-19 08:43:15 51°20.103 2°50.354 -999 0.034181 0.181493 -1.244337
2008-12-19 08:43:20 51°20.118 2°50.346 -999 0.032534 0.172685 -1.279161
2008-12-19 08:43:25 51°20.133 2°50.337 -999 0.031814 0.168841 -1.244337
2008-12-19 08:43:30 51°20.149 2°50.328 -999 0.031814 0.168841 -1.244337
2008-12-19 08:43:34 51°20.161 2°50.32 -999 0.03202 0.169939 -1.244337
2008-12-19 08:43:40 51°20.18 2°50.309 -999 0.032843 0.174333 -1.244337
2008-12-19 08:43:45 51°20.196 2°50.3 -999 0.031505 0.167179 -1.279161
2008-12-19 08:43:49 51°20.208 2°50.293 -999 0.036651 0.194758 -1.244337
2008-12-19 08:43:54 51°20.223 2°50.283 -999 0.033049 0.175436 -1.244337
2008-12-19 08:44:00 51°20.242 2°50.272 -999 0.033049 0.175436 -1.244337
2008-12-19 08:44:05 51°20.258 2°50.262 -999 0.036754 0.195298 -1.244337
2008-12-19 08:44:09 51°20.27 2°50.255 -999 0.033152 0.175981 -1.279161
2008-12-19 08:44:14 51°20.285 2°50.246 -999 0.03521 0.187027 -1.279161
2008-12-19 08:44:20 51°20.304 2°50.236 -999 0.033049 0.175459 -1.244337
2008-12-19 08:44:25 51°20.32 2°50.227 -999 0.033049 0.175459 -1.244337
2008-12-19 08:44:29 51°20.332 2°50.22 -999 0.03449 0.183202 -1.279161
2008-12-19 08:44:34 51°20.348 2°50.211 -999 0.033152 0.176045 -1.279161
2008-12-19 08:44:40 51°20.367 2°50.2 -999 0.03346 0.1777 -1.244337
2008-12-19 08:44:45 51°20.382 2°50.19 -999 0.032843 0.174381 -1.244337
2008-12-19 08:44:49 51°20.395 2°50.183 -999 0.03274 0.173814 -1.244337
2008-12-19 08:44:54 51°20.411 2°50.173 -999 0.035004 0.185938 -1.244337
2008-12-19 08:45:00 51°20.429 2°50.163 -999 0.035004 0.185938 -1.244337
2008-12-19 08:45:05 51°20.445 2°50.154 -999 0.031197 0.165549 -1.279161
2008-12-19 08:45:09 51°20.457 2°50.147 -999 0.033975 0.180405 -1.279161
2008-12-19 08:45:14 51°20.473 2°50.139 -999 0.034901 0.185407 -1.244337
2008-12-19 08:45:20 51°20.491 2°50.127 -999 0.031608 0.16775 -1.244337
2008-12-19 08:45:25 51°20.507 2°50.118 -999 0.032329 0.171597 -1.244337
2008-12-19 08:45:29 51°20.52 2°50.11 -999 0.032329 0.171597 -1.244337
2008-12-19 08:45:34 51°20.535 2°50.101 -999 0.033049 0.175439 -1.244337
2008-12-19 08:45:40 51°20.554 2°50.09 -999 0.034695 0.184266 -1.244337
2008-12-19 08:45:45 51°20.57 2°50.081 -999 0.033358 0.177111 -1.279161
2008-12-19 08:45:49 51°20.583 2°50.074 -999 0.033975 0.180417 -1.244337
2008-12-19 08:45:54 51°20.599 2°50.065 -999 0.034078 0.18096 -1.244337
2008-12-19 08:46:00 51°20.618 2°50.054 -999 0.034078 0.18096 -1.244337
2008-12-19 08:46:05 51°20.634 2°50.045 -999 0.032637 0.173249 -1.279161
2008-12-19 08:46:09 51°20.646 2°50.037 -999 0.032329 0.171608 -1.244337
2008-12-19 08:46:14 51°20.662 2°50.029 -999 0.032329 0.171642 -1.279161
2008-12-19 08:46:20 51°20.681 2°50.019 -999 0.031505 0.167237 -1.279161
2008-12-19 08:46:25 51°20.697 2°50.01 -999 0.046324 0.24718 -1.279161
2008-12-19 08:46:29 51°20.71 2°50.007 -999 0.046324 0.24718 -1.279161
2008-12-19 08:46:34 51°20.726 2°50 -999 0.04334 0.230922 -1.279161
2008-12-19 08:46:40 51°20.746 2°49.996 -999 0.036548 0.194253 -1.244337
2008-12-19 08:46:45 51°20.763 2°49.991 -999 0.049 0.261763 -1.279161
2008-12-19 08:46:49 51°20.776 2°49.991 -999 0.038503 0.204781 -1.244337
2008-12-19 08:46:54 51°20.792 2°49.989 -999 0.036856 0.195894 -1.279161
2008-12-19 08:47:00 51°20.812 2°49.99 -999 0.036856 0.195894 -1.279161
2008-12-19 08:47:05 51°20.829 2°49.992 -999 0.039635 0.210867 -1.139864
2008-12-19 08:47:09 51°20.842 2°49.993 -999 0.037885 0.201439 -1.10504
2008-12-19 08:47:14 51°20.859 2°49.995 -999 0.036754 0.195328 -1.10504
2008-12-19 08:47:20 51°20.879 2°49.999 -999 0.043545 0.232031 -1.10504
2008-12-19 08:47:25 51°20.895 2°50.002 -999 0.039223 0.208662 -1.10504
2008-12-19 08:47:29 51°20.908 2°50.007 -999 0.039223 0.208662 -1.10504
2008-12-19 08:47:34 51°20.924 2°50.012 -999 0.040458 0.215312 -1.10504
2008-12-19 08:47:40 51°20.943 2°50.019 -999 0.034901 0.185383 -1.10504
2008-12-19 08:47:45 51°20.96 2°50.025 -999 0.044266 0.235963 -1.10504
2008-12-19 08:47:49 51°20.973 2°50.031 -999 0.039738 0.21143 -1.10504
2008-12-19 08:47:54 51°20.989 2°50.037 -999 0.039738 0.21143 -1.10504
2008-12-19 08:48:00 51°21.008 2°50.046 -999 0.038915 0.206988 -1.10504
2008-12-19 08:48:05 51°21.025 2°50.053 -999 0.036754 0.195377 -1.10504
2008-12-19 08:48:09 51°21.038 2°50.059 -999 0.037577 0.199826 -1.10504
2008-12-19 08:48:14 51°21.054 2°50.065 -999 0.035004 0.185972 -1.070216
2008-12-19 08:48:20 51°21.074 2°50.073 -999 0.039017 0.207551 -1.10504
2008-12-19 08:48:25 51°21.09 2°50.082 -999 0.035519 0.188684 -1.139864
2008-12-19 08:48:29 51°21.103 2°50.085 -999 0.035519 0.188684 -1.139864
2008-12-19 08:48:34 51°21.12 2°50.092 -999 0.036548 0.19423 -1.10504
2008-12-19 08:48:40 51°21.14 2°50.101 -999 0.034695 0.184306 -1.10504
2008-12-19 08:48:45 51°21.156 2°50.107 -999 0.03449 0.183202 -1.10504
2008-12-19 08:48:50 51°21.173 2°50.114 -999 0.033152 0.176027 -1.070216
2008-12-19 08:48:55 51°21.189 2°50.121 -999 0.032534 0.172714 -1.070216
2008-12-19 08:49:00 51°21.205 2°50.129 -999 0.032534 0.172714 -1.070216
2008-12-19 08:49:05 51°21.222 2°50.135 -999 0.036136 0.192024 -1.10504
2008-12-19 08:49:10 51°21.238 2°50.14 -999 0.034901 0.185373 -1.10504
2008-12-19 08:49:15 51°21.254 2°50.147 -999 0.032534 0.172702 -1.10504
2008-12-19 08:49:20 51°21.271 2°50.154 -999 0.033152 0.176016 -1.10504
2008-12-19 08:49:25 51°21.287 2°50.16 -999 0.034592 0.183751 -1.10504
2008-12-19 08:49:30 51°21.304 2°50.167 -999 0.034592 0.183751 -1.10504
2008-12-19 08:49:35 51°21.32 2°50.173 -999 0.035724 0.189827 -1.10504
2008-12-19 08:49:40 51°21.337 2°50.18 -999 0.038606 0.205333 -1.10504
2008-12-19 08:49:45 51°21.353 2°50.184 -999 0.147593 0.820506 -1.10504
2008-12-19 08:49:50 51°21.37 2°50.193 -999 0.067523 0.363962 -1.10504
2008-12-19 08:49:55 51°21.386 2°50.197 -999 0.065259 0.351372 -1.035392
2008-12-19 08:50:00 51°21.402 2°50.204 -999 0.065259 0.351372 -1.035392
2008-12-19 08:50:05 51°21.419 2°50.208 -999 0.05785 0.310347 -1.000568
2008-12-19 08:50:10 51°21.435 2°50.215 -999 0.039841 0.212007 -1.000568
2008-12-19 08:50:14 51°21.448 2°50.216 -999 0.051572 0.275866 -1.000568
2008-12-19 08:50:20 51°21.468 2°50.222 -999 0.045089 0.240458 -1.000568
2008-12-19 08:50:25 51°21.484 2°50.224 -999 0.054145 0.289946 -0.965744
2008-12-19 08:50:29 51°21.498 2°50.226 -999 0.054145 0.289946 -0.965744
2008-12-19 08:50:34 51°21.515 2°50.229 -999 0.043442 0.23146 -1.000568
2008-12-19 08:50:40 51°21.535 2°50.232 -999 0.045604 0.2432 -0.965744
2008-12-19 08:50:45 51°21.552 2°50.235 -999 0.043031 0.229258 -1.000568
2008-12-19 08:50:49 51°21.565 2°50.236 -999 0.040458 0.215305 -0.965744
2008-12-19 08:50:54 51°21.582 2°50.24 -999 0.04478 0.238743 -1.000568
2008-12-19 08:51:00 51°21.602 2°50.242 -999 0.04478 0.238743 -1.000568
2008-12-19 08:51:05 51°21.619 2°50.244 -999 0.040047 0.213134 -0.965744
2008-12-19 08:51:09 51°21.633 2°50.245 -999 0.04159 0.221509 -1.000568
2008-12-19 08:51:14 51°21.649 2°50.249 -999 0.041693 0.2221 -0.965744
2008-12-19 08:51:20 51°21.669 2°50.25 -999 0.041384 0.22042 -0.965744
2008-12-19 08:51:25 51°21.686 2°50.253 -999 0.0384 0.204264 -0.965744
2008-12-19 08:51:29 51°21.699 2°50.254 -999 0.0384 0.204264 -0.965744
2008-12-19 08:51:35 51°21.719 2°50.257 -999 0.044883 0.23938 -0.965744
2008-12-19 08:51:40 51°21.736 2°50.259 -999 0.038091 0.202602 -1.000568
2008-12-19 08:51:45 51°21.753 2°50.26 -999 0.03912 0.208165 -0.965744
2008-12-19 08:51:50 51°21.769 2°50.262 -999 0.039429 0.209833 -0.965744
2008-12-19 08:51:55 51°21.786 2°50.262 -999 0.038297 0.203709 -1.000568
2008-12-19 08:52:00 51°21.802 2°50.263 -999 0.038297 0.203709 -1.000568
2008-12-19 08:52:05 51°21.819 2°50.264 -999 0.040664 0.216484 -0.965744
2008-12-19 08:52:10 51°21.836 2°50.265 -999 0.037783 0.200898 -1.000568
2008-12-19 08:52:15 51°21.852 2°50.265 -999 0.034592 0.183748 -1.000568
2008-12-19 08:52:20 51°21.869 2°50.264 -999 0.038091 0.202569 -1.000568
2008-12-19 08:52:25 51°21.886 2°50.265 -999 0.039635 0.210895 -1.000568
2008-12-19 08:52:30 51°21.903 2°50.265 -999 0.039635 0.210895 -1.000568
2008-12-19 08:52:34 51°21.916 2°50.266 -999 0.03768 0.200347 -1.000568
2008-12-19 08:52:40 51°21.936 2°50.266 -999 0.036239 0.192586 -0.965744
2008-12-19 08:52:45 51°21.953 2°50.266 -999 0.03912 0.208099 -1.000568
2008-12-19 08:52:50 51°21.969 2°50.266 -999 0.035004 0.18595 -0.965744
2008-12-19 08:52:54 51°21.983 2°50.266 -999 0.056718 0.304136 -1.000568
2008-12-19 08:53:00 51°22.003 2°50.267 -999 0.056718 0.304136 -1.000568
2008-12-19 08:53:05 51°22.019 2°50.266 -999 0.046118 0.246105 -1.000568
2008-12-19 08:53:10 51°22.036 2°50.266 -999 0.038606 0.20536 -1.000568
2008-12-19 08:53:15 51°22.053 2°50.266 -999 0.036342 0.193178 -0.965744
2008-12-19 08:53:20 51°22.07 2°50.265 -999 0.038194 0.203154 -0.965744
2008-12-19 08:53:25 51°22.086 2°50.265 -999 0.038194 0.203154 -0.965744
2008-12-19 08:53:30 51°22.104 2°50.264 -999 0.037988 0.202027 -1.000568
2008-12-19 08:53:35 51°22.121 2°50.264 -999 0.036651 0.19482 -1.000568
2008-12-19 08:53:40 51°22.137 2°50.264 -999 0.036548 0.194279 -1.000568
2008-12-19 08:53:45 51°22.154 2°50.264 -999 0.034695 0.184328 -0.965744
2008-12-19 08:53:49 51°22.168 2°50.264 -999 0.035313 0.187626 -1.000568
2008-12-19 08:53:55 51°22.189 2°50.263 -999 0.034284 0.182099 -0.965744
2008-12-19 08:54:00 51°22.206 2°50.263 -999 0.034284 0.182099 -0.965744
2008-12-19 08:54:05 51°22.223 2°50.263 -999 0.033563 0.178236 -0.965744
2008-12-19 08:54:10 51°22.24 2°50.263 -999 0.033255 0.176584 -0.965744
2008-12-19 08:54:15 51°22.257 2°50.262 -999 0.04231 0.225382 -1.000568
2008-12-19 08:54:20 51°22.274 2°50.263 -999 0.036136 0.192075 -0.965744
2008-12-19 08:54:25 51°22.291 2°50.262 -999 0.037165 0.197592 -0.965744
2008-12-19 08:54:30 51°22.308 2°50.262 -999 0.037165 0.197592 -0.965744
2008-12-19 08:54:34 51°22.321 2°50.263 -999 0.033563 0.178234 -0.965744
2008-12-19 08:54:40 51°22.341 2°50.264 -999 0.032534 0.172745 -0.965744
2008-12-19 08:54:45 51°22.358 2°50.263 -999 0.034798 0.184877 -0.965744
2008-12-19 08:54:50 51°22.376 2°50.264 -999 0.0384 0.204281 -0.965744
2008-12-19 08:54:54 51°22.389 2°50.264 -999 0.033152 0.176091 -0.965744
2008-12-19 08:55:00 51°22.41 2°50.264 -999 0.033152 0.176091 -0.965744
2008-12-19 08:55:05 51°22.427 2°50.266 -999 0.033975 0.180519 -1.000568
2008-12-19 08:55:10 51°22.444 2°50.266 -999 0.034798 0.184929 -0.965744
2008-12-19 08:55:15 51°22.461 2°50.267 -999 0.031094 0.165079 -0.965744
2008-12-19 08:55:20 51°22.478 2°50.267 -999 0.053527 0.286673 -0.965744
2008-12-19 08:55:25 51°22.495 2°50.268 -999 0.041384 0.220435 -0.965744
2008-12-19 08:55:30 51°22.512 2°50.268 -999 0.041384 0.220435 -0.965744
2008-12-19 08:55:35 51°22.529 2°50.268 -999 0.040355 0.214846 -0.965744
2008-12-19 08:55:40 51°22.546 2°50.269 -999 0.0384 0.204267 -0.965744
2008-12-19 08:55:45 51°22.563 2°50.27 -999 0.039429 0.209843 -0.965744
2008-12-19 08:55:50 51°22.58 2°50.271 -999 0.036754 0.195429 -1.000568
2008-12-19 08:55:55 51°22.597 2°50.271 -999 0.037885 0.201533 -0.93092
2008-12-19 08:56:00 51°22.614 2°50.27 -999 0.037885 0.201533 -0.93092
2008-12-19 08:56:05 51°22.631 2°50.27 -999 0.03521 0.18713 -0.93092
2008-12-19 08:56:10 51°22.648 2°50.269 -999 0.037371 0.198727 -0.93092
2008-12-19 08:56:15 51°22.665 2°50.269 -999 0.039429 0.209815 -0.93092
2008-12-19 08:56:20 51°22.682 2°50.27 -999 0.037474 0.199241 -0.93092
2008-12-19 08:56:25 51°22.699 2°50.271 -999 0.034901 0.185444 -0.93092
2008-12-19 08:56:30 51°22.716 2°50.271 -999 0.034901 0.185444 -0.93092
2008-12-19 08:56:35 51°22.733 2°50.272 -999 0.036651 0.194885 -0.965744
2008-12-19 08:56:40 51°22.75 2°50.272 -999 0.036548 0.194315 -0.93092
2008-12-19 08:56:45 51°22.766 2°50.273 -999 0.033872 0.179944 -0.93092
2008-12-19 08:56:50 51°22.783 2°50.274 -999 0.034798 0.184904 -0.93092
2008-12-19 08:56:54 51°22.797 2°50.273 -999 0.034798 0.184904 -0.93092
2008-12-19 08:57:00 51°22.817 2°50.274 -999 0.03449 0.183266 -0.93092
2008-12-19 08:57:05 51°22.834 2°50.273 -999 0.036033 0.191547 -0.93092
2008-12-19 08:57:10 51°22.851 2°50.274 -999 0.0384 0.204288 -0.965744
2008-12-19 08:57:14 51°22.864 2°50.274 -999 0.035004 0.186 -0.965744
2008-12-19 08:57:20 51°22.884 2°50.274 -999 0.032226 0.17112 -0.965744
2008-12-19 08:57:25 51°22.901 2°50.273 -999 0.035622 0.189325 -0.93092
2008-12-19 08:57:30 51°22.918 2°50.273 -999 0.035622 0.189325 -0.93092
2008-12-19 08:57:35 51°22.935 2°50.274 -999 0.031917 0.169482 -0.93092
2008-12-19 08:57:40 51°22.952 2°50.273 -999 0.033666 0.178817 -0.93092
2008-12-19 08:57:45 51°22.969 2°50.274 -999 0.033769 0.179368 -0.93092
2008-12-19 08:57:50 51°22.986 2°50.274 -999 0.030065 0.159584 -0.93092
2008-12-19 08:57:55 51°23.004 2°50.274 -999 0.036754 0.195399 -0.93092
2008-12-19 08:58:00 51°23.021 2°50.274 -999 0.036754 0.195399 -0.93092
2008-12-19 08:58:05 51°23.038 2°50.275 -999 0.035827 0.190422 -0.93092
2008-12-19 08:58:10 51°23.055 2°50.275 -999 0.032637 0.173332 -0.93092
2008-12-19 08:58:15 51°23.072 2°50.275 -999 0.03274 0.17388 -0.93092
2008-12-19 08:58:20 51°23.089 2°50.275 -999 0.047044 0.2512 -0.93092
2008-12-19 08:58:25 51°23.106 2°50.276 -999 0.038503 0.204888 -0.93092
2008-12-19 08:58:30 51°23.122 2°50.277 -999 0.038503 0.204888 -0.93092
2008-12-19 08:58:35 51°23.139 2°50.277 -999 0.036239 0.19266 -0.93092
2008-12-19 08:58:40 51°23.156 2°50.277 -999 0.037885 0.20151 -0.93092
2008-12-19 08:58:45 51°23.172 2°50.278 -999 0.036342 0.193194 -0.93092
2008-12-19 08:58:50 51°23.189 2°50.278 -999 0.037783 0.200962 -0.93092
2008-12-19 08:58:55 51°23.205 2°50.279 -999 0.038915 0.207075 -0.93092
2008-12-19 08:59:00 51°23.222 2°50.281 -999 0.038915 0.207075 -0.93092
2008-12-19 08:59:05 51°23.238 2°50.279 -999 0.039017 0.207659 -0.826448
2008-12-19 08:59:10 51°23.255 2°50.28 -999 0.035827 0.190488 -0.896096
2008-12-19 08:59:14 51°23.268 2°50.28 -999 0.041281 0.219896 -0.896096
2008-12-19 08:59:20 51°23.288 2°50.282 -999 0.040458 0.215472 -0.896096
2008-12-19 08:59:25 51°23.304 2°50.281 -999 0.040458 0.215454 -0.93092
2008-12-19 08:59:30 51°23.321 2°50.283 -999 0.040458 0.215454 -0.93092
2008-12-19 08:59:34 51°23.334 2°50.283 -999 0.040252 0.214315 -0.93092
2008-12-19 08:59:40 51°23.354 2°50.283 -999 0.040047 0.213231 -0.93092
2008-12-19 08:59:45 51°23.37 2°50.283 -999 0.037988 0.202119 -0.93092
2008-12-19 08:59:50 51°23.387 2°50.283 -999 0.040149 0.213798 -0.896096
2008-12-19 08:59:55 51°23.404 2°50.284 -999 0.034181 0.181641 -0.896096
2008-12-19 09:00:00 51°23.42 2°50.284 -999 0.034181 0.181641 -0.896096
2008-12-19 09:00:05 51°23.437 2°50.285 -999 0.036651 0.19492 -0.93092
2008-12-19 09:00:10 51°23.454 2°50.284 -999 0.037474 0.199355 -0.93092
2008-12-19 09:00:15 51°23.47 2°50.285 -999 0.033769 0.17944 -0.93092
2008-12-19 09:00:20 51°23.487 2°50.284 -999 0.034078 0.181092 -0.93092
2008-12-19 09:00:25 51°23.504 2°50.285 -999 0.034078 0.181092 -0.93092
2008-12-19 09:00:29 51°23.517 2°50.284 -999 0.040973 0.218257 -0.93092
2008-12-19 09:00:35 51°23.538 2°50.285 -999 0.035724 0.189932 -0.965744
2008-12-19 09:00:40 51°23.554 2°50.287 -999 0.036651 0.19492 -0.93092
2008-12-19 09:00:45 51°23.571 2°50.287 -999 0.040561 0.216025 -0.93092
2008-12-19 09:00:50 51°23.587 2°50.286 -999 0.036754 0.195474 -0.965744
2008-12-19 09:00:55 51°23.603 2°50.288 -999 0.038812 0.206565 -0.93092
2008-12-19 09:01:00 51°23.62 2°50.287 -999 0.038812 0.206565 -0.93092
2008-12-19 09:01:05 51°23.637 2°50.288 -999 0.037474 0.199345 -0.93092
2008-12-19 09:01:10 51°23.653 2°50.288 -999 0.042208 0.224923 -0.93092
2008-12-19 09:01:15 51°23.67 2°50.289 -999 0.036651 0.194878 -0.93092
2008-12-19 09:01:20 51°23.687 2°50.288 -999 0.036651 0.194862 -0.93092
2008-12-19 09:01:25 51°23.704 2°50.289 -999 0.038606 0.205419 -0.826448
2008-12-19 09:01:30 51°23.72 2°50.288 -999 0.038606 0.205419 -0.826448
2008-12-19 09:01:34 51°23.733 2°50.29 -999 0.031197 0.16565 -0.93092
2008-12-19 09:01:40 51°23.753 2°50.288 -999 0.040664 0.216524 -0.965744
2008-12-19 09:01:45 51°23.77 2°50.29 -999 0.03449 0.183269 -0.965744
2008-12-19 09:01:50 51°23.787 2°50.288 -999 0.041384 0.220461 -0.965744
2008-12-19 09:01:54 51°23.8 2°50.289 -999 0.034078 0.181077 -0.861272
2008-12-19 09:02:00 51°23.82 2°50.289 -999 0.034078 0.181077 -0.861272
2008-12-19 09:02:05 51°23.836 2°50.29 -999 0.033152 0.176106 -0.93092
2008-12-19 09:02:10 51°23.853 2°50.289 -999 0.034181 0.18161 -0.965744
2008-12-19 09:02:15 51°23.869 2°50.289 -999 0.037988 0.202102 -0.965744
2008-12-19 09:02:20 51°23.886 2°50.29 -999 0.036239 0.192673 -0.965744
2008-12-19 09:02:25 51°23.903 2°50.289 -999 0.035827 0.190453 -0.965744
2008-12-19 09:02:30 51°23.919 2°50.289 -999 0.035827 0.190453 -0.965744
2008-12-19 09:02:35 51°23.936 2°50.289 -999 0.036136 0.192116 -0.965744
2008-12-19 09:02:40 51°23.953 2°50.289 -999 0.032946 0.175007 -0.965744
2008-12-19 09:02:45 51°23.97 2°50.289 -999 0.032534 0.172796 -0.965744
2008-12-19 09:02:49 51°23.984 2°50.288 -999 0.03521 0.187161 -0.965744
2008-12-19 09:02:55 51°24.004 2°50.289 -999 0.042825 0.228288 -1.000568
2008-12-19 09:03:00 51°24.021 2°50.289 -999 0.042825 0.228288 -1.000568
2008-12-19 09:03:05 51°24.038 2°50.288 -999 0.036548 0.19437 -0.965744
2008-12-19 09:03:10 51°24.055 2°50.29 -999 0.033049 0.175593 -0.965744
2008-12-19 09:03:15 51°24.071 2°50.289 -999 0.03521 0.187201 -1.000568
2008-12-19 09:03:20 51°24.087 2°50.291 -999 0.03274 0.173934 -1.000568
2008-12-19 09:03:25 51°24.104 2°50.289 -999 0.056821 0.304918 -0.965744
2008-12-19 09:03:30 51°24.12 2°50.292 -999 0.056821 0.304918 -0.965744
2008-12-19 09:03:34 51°24.133 2°50.291 -999 0.047044 0.251302 -0.93092
2008-12-19 09:03:40 51°24.152 2°50.294 -999 0.042722 0.227787 -0.965744
2008-12-19 09:03:45 51°24.168 2°50.292 -999 0.060937 0.327662 -0.93092
2008-12-19 09:03:50 51°24.185 2°50.293 -999 0.037885 0.201587 -0.965744
2008-12-19 09:03:55 51°24.201 2°50.292 -999 0.0384 0.204391 -0.965744
2008-12-19 09:04:00 51°24.218 2°50.293 -999 0.0384 0.204391 -0.965744
2008-12-19 09:04:05 51°24.234 2°50.292 -999 0.043545 0.232251 -0.965744
2008-12-19 09:04:09 51°24.248 2°50.293 -999 0.038915 0.2072 -0.965744
2008-12-19 09:04:14 51°24.264 2°50.292 -999 0.037165 0.197751 -0.93092
2008-12-19 09:04:20 51°24.284 2°50.294 -999 0.033358 0.177261 -0.965744
2008-12-19 09:04:25 51°24.301 2°50.292 -999 0.033769 0.179463 -1.000568
2008-12-19 09:04:29 51°24.314 2°50.293 -999 0.033769 0.179463 -1.000568
2008-12-19 09:04:35 51°24.334 2°50.292 -999 0.034901 0.185543 -0.93092
2008-12-19 09:04:40 51°24.351 2°50.292 -999 0.04087 0.217744 -0.93092
2008-12-19 09:04:45 51°24.368 2°50.293 -999 0.038194 0.203297 -0.965744
2008-12-19 09:04:50 51°24.385 2°50.292 -999 0.033049 0.175636 -0.965744
2008-12-19 09:04:55 51°24.402 2°50.292 -999 0.032843 0.174514 -0.965744
2008-12-19 09:05:00 51°24.418 2°50.293 -999 0.032843 0.174514 -0.965744
2008-12-19 09:05:05 51°24.435 2°50.293 -999 0.046221 0.246825 -0.965744
2008-12-19 09:05:09 51°24.448 2°50.293 -999 0.042825 0.228346 -0.896096
2008-12-19 09:05:15 51°24.468 2°50.293 -999 0.035416 0.188329 -0.93092
2008-12-19 09:05:20 51°24.484 2°50.294 -999 0.033975 0.180585 -0.93092
2008-12-19 09:05:25 51°24.501 2°50.293 -999 0.036342 0.193301 -0.93092
2008-12-19 09:05:30 51°24.518 2°50.293 -999 0.036342 0.193301 -0.93092
2008-12-19 09:05:34 51°24.531 2°50.295 -999 0.03274 0.173966 -0.93092
2008-12-19 09:05:40 51°24.551 2°50.294 -999 0.033049 0.175607 -0.965744
2008-12-19 09:05:45 51°24.567 2°50.294 -999 0.034592 0.183891 -0.965744
2008-12-19 09:05:50 51°24.584 2°50.294 -999 0.040973 0.218301 -0.965744
2008-12-19 09:05:54 51°24.597 2°50.293 -999 0.03593 0.191083 -0.93092
2008-12-19 09:06:00 51°24.617 2°50.294 -999 0.03593 0.191083 -0.93092
2008-12-19 09:06:05 51°24.634 2°50.294 -999 0.040252 0.214416 -0.965744
2008-12-19 09:06:10 51°24.65 2°50.294 -999 0.036136 0.192184 -0.965744
2008-12-19 09:06:14 51°24.663 2°50.294 -999 0.034078 0.181155 -0.965744
2008-12-19 09:06:20 51°24.683 2°50.294 -999 0.034181 0.18171 -0.93092
2008-12-19 09:06:25 51°24.7 2°50.294 -999 0.031814 0.169024 -0.965744
2008-12-19 09:06:30 51°24.716 2°50.293 -999 0.031814 0.169024 -0.965744
2008-12-19 09:06:35 51°24.733 2°50.294 -999 0.032329 0.171775 -0.93092
2008-12-19 09:06:40 51°24.75 2°50.293 -999 0.03274 0.173957 -0.965744
2008-12-19 09:06:45 51°24.767 2°50.294 -999 0.032123 0.170641 -0.93092
2008-12-19 09:06:50 51°24.784 2°50.293 -999 0.031505 0.167358 -0.93092
2008-12-19 09:06:55 51°24.8 2°50.293 -999 0.036959 0.196635 -0.896096
2008-12-19 09:07:00 51°24.817 2°50.294 -999 0.036959 0.196635 -0.896096
2008-12-19 09:07:05 51°24.834 2°50.294 -999 0.033152 0.176193 -0.826448
2008-12-19 09:07:10 51°24.85 2°50.292 -999 0.031814 0.169021 -0.826448
2008-12-19 09:07:15 51°24.867 2°50.293 -999 0.034695 0.184462 -0.791624
2008-12-19 09:07:20 51°24.883 2°50.293 -999 0.031608 0.167927 -0.791624
2008-12-19 09:07:25 51°24.899 2°50.293 -999 0.034078 0.181137 -0.7568
2008-12-19 09:07:30 51°24.915 2°50.294 -999 0.034078 0.181137 -0.7568
2008-12-19 09:07:35 51°24.931 2°50.294 -999 0.031197 0.165726 -0.791624
2008-12-19 09:07:40 51°24.947 2°50.294 -999 0.031814 0.169024 -0.791624
2008-12-19 09:07:45 51°24.963 2°50.294 -999 0.032637 0.173447 -0.791624
2008-12-19 09:07:50 51°24.98 2°50.295 -999 0.032946 0.175088 -0.7568
2008-12-19 09:07:55 51°24.996 2°50.295 -999 0.028727 0.152556 -0.7568
2008-12-19 09:08:00 51°25.013 2°50.295 -999 0.028727 0.152556 -0.7568
2008-12-19 09:08:05 51°25.03 2°50.294 -999 0.039223 0.208872 -0.791624
2008-12-19 09:08:10 51°25.047 2°50.294 -999 0.035416 0.188389 -0.791624
2008-12-19 09:08:14 51°25.061 2°50.294 -999 0.035724 0.190058 -0.791624
2008-12-19 09:08:20 51°25.081 2°50.294 -999 0.029756 0.158093 -0.791624
2008-12-19 09:08:25 51°25.098 2°50.291 -999 0.077814 0.421863 -0.791624
2008-12-19 09:08:30 51°25.115 2°50.295 -999 0.077814 0.421863 -0.791624
2008-12-19 09:08:34 51°25.129 2°50.293 -999 0.081211 0.440955 -0.826448
2008-12-19 09:08:40 51°25.148 2°50.294 -999 0.046838 0.250243 -0.861272
2008-12-19 09:08:45 51°25.165 2°50.293 -999 0.045604 0.243498 -0.861272
2008-12-19 09:08:50 51°25.181 2°50.293 -999 0.040458 0.215541 -0.861272
2008-12-19 09:08:55 51°25.198 2°50.293 -999 0.041899 0.223332 -0.861272
2008-12-19 09:09:00 51°25.215 2°50.294 -999 0.041899 0.223332 -0.861272
2008-12-19 09:09:05 51°25.232 2°50.291 -999 0.043751 0.233377 -0.861272
2008-12-19 09:09:10 51°25.248 2°50.292 -999 0.042825 0.22835 -0.861272
2008-12-19 09:09:15 51°25.266 2°50.292 -999 0.041796 0.222767 -0.826448
2008-12-19 09:09:20 51°25.282 2°50.291 -999 0.043442 0.231723 -0.861272
2008-12-19 09:09:25 51°25.299 2°50.291 -999 0.04406 0.235071 -0.861272
2008-12-19 09:09:30 51°25.317 2°50.289 -999 0.04406 0.235071 -0.861272
2008-12-19 09:09:35 51°25.334 2°50.29 -999 0.039635 0.211108 -0.861272
2008-12-19 09:09:40 51°25.351 2°50.289 -999 0.03912 0.20833 -0.861272
2008-12-19 09:09:45 51°25.368 2°50.29 -999 0.037062 0.197219 -0.861272
2008-12-19 09:09:50 51°25.386 2°50.29 -999 0.039429 0.209984 -0.826448
2008-12-19 09:09:55 51°25.403 2°50.292 -999 0.068758 0.371134 -0.826448
2008-12-19 09:10:00 51°25.42 2°50.289 -999 0.068758 0.371134 -0.826448
2008-12-19 09:10:05 51°25.437 2°50.292 -999 0.039326 0.209435 -0.826448
2008-12-19 09:10:10 51°25.454 2°50.29 -999 0.053322 0.285774 -0.826448
2008-12-19 09:10:15 51°25.472 2°50.292 -999 0.041796 0.222815 -0.791624
2008-12-19 09:10:20 51°25.488 2°50.29 -999 0.04653 0.248576 -0.791624
2008-12-19 09:10:25 51°25.506 2°50.291 -999 0.068449 0.369505 -0.826448
2008-12-19 09:10:30 51°25.522 2°50.291 -999 0.068449 0.369505 -0.826448
2008-12-19 09:10:34 51°25.536 2°50.292 -999 0.040664 0.216706 -0.861272
2008-12-19 09:10:40 51°25.557 2°50.291 -999 0.043134 0.230096 -0.826448
2008-12-19 09:10:45 51°25.574 2°50.292 -999 0.039017 0.207774 -0.861272
2008-12-19 09:10:50 51°25.591 2°50.292 -999 0.039944 0.212796 -0.826448
2008-12-19 09:10:54 51°25.605 2°50.292 -999 0.03912 0.208333 -0.826448
2008-12-19 09:11:00 51°25.625 2°50.293 -999 0.03912 0.208333 -0.826448
2008-12-19 09:11:05 51°25.642 2°50.294 -999 0.037371 0.198913 -0.826448
2008-12-19 09:11:10 51°25.659 2°50.294 -999 0.035107 0.186726 -0.826448
2008-12-19 09:11:15 51°25.676 2°50.293 -999 0.039017 0.207819 -0.826448
2008-12-19 09:11:20 51°25.693 2°50.295 -999 0.037474 0.199465 -0.896096
2008-12-19 09:11:25 51°25.71 2°50.294 -999 0.042208 0.22509 -0.965744
2008-12-19 09:11:30 51°25.727 2°50.296 -999 0.042208 0.22509 -0.965744
2008-12-19 09:11:35 51°25.744 2°50.293 -999 0.044574 0.237939 -0.93092
2008-12-19 09:11:40 51°25.761 2°50.295 -999 0.034695 0.184505 -0.93092
2008-12-19 09:11:45 51°25.778 2°50.293 -999 0.036651 0.195015 -0.965744
2008-12-19 09:11:49 51°25.791 2°50.294 -999 0.037165 0.197807 -0.93092
2008-12-19 09:11:55 51°25.812 2°50.293 -999 0.037474 0.199461 -0.93092
2008-12-19 09:12:00 51°25.829 2°50.294 -999 0.037474 0.199461 -0.93092
2008-12-19 09:12:05 51°25.846 2°50.294 -999 0.037371 0.1989 -0.93092
2008-12-19 09:12:10 51°25.863 2°50.295 -999 0.03593 0.19115 -1.000568
2008-12-19 09:12:15 51°25.88 2°50.295 -999 0.033461 0.177885 -0.93092
2008-12-19 09:12:20 51°25.897 2°50.294 -999 0.036239 0.192818 -1.000568
2008-12-19 09:12:25 51°25.913 2°50.295 -999 0.032431 0.172371 -0.93092
2008-12-19 09:12:30 51°25.93 2°50.296 -999 0.032431 0.172371 -0.93092
2008-12-19 09:12:35 51°25.947 2°50.295 -999 0.046838 0.250299 -0.93092
2008-12-19 09:12:40 51°25.964 2°50.295 -999 0.04087 0.21781 -0.93092
2008-12-19 09:12:45 51°25.981 2°50.296 -999 0.032123 0.170725 -0.965744
2008-12-19 09:12:50 51°25.998 2°50.294 -999 0.038812 0.206707 -0.965744
2008-12-19 09:12:55 51°26.015 2°50.295 -999 0.034387 0.182884 -0.93092
2008-12-19 09:13:00 51°26.032 2°50.294 -999 0.034387 0.182884 -0.93092
2008-12-19 09:13:05 51°26.049 2°50.294 -999 0.043751 0.233512 -0.93092
2008-12-19 09:13:10 51°26.066 2°50.295 -999 0.034284 0.182329 -0.93092
2008-12-19 09:13:15 51°26.083 2°50.294 -999 0.038915 0.20727 -0.93092
2008-12-19 09:13:20 51°26.1 2°50.294 -999 0.033563 0.178461 -0.93092
2008-12-19 09:13:25 51°26.117 2°50.293 -999 0.033358 0.177346 -0.93092
2008-12-19 09:13:30 51°26.134 2°50.294 -999 0.033358 0.177346 -0.93092
2008-12-19 09:13:35 51°26.151 2°50.294 -999 0.034695 0.184517 -0.93092
2008-12-19 09:13:40 51°26.169 2°50.293 -999 0.033872 0.180099 -0.93092
2008-12-19 09:13:45 51°26.185 2°50.293 -999 0.031711 0.168521 -0.93092
2008-12-19 09:13:49 51°26.199 2°50.293 -999 0.037062 0.197265 -0.93092
2008-12-19 09:13:55 51°26.219 2°50.294 -999 0.030373 0.1614 -0.93092
2008-12-19 09:14:00 51°26.236 2°50.294 -999 0.030373 0.1614 -0.93092
2008-12-19 09:14:05 51°26.253 2°50.295 -999 0.048485 0.259316 -0.93092
2008-12-19 09:14:10 51°26.27 2°50.295 -999 0.0384 0.204487 -0.93092
2008-12-19 09:14:15 51°26.286 2°50.295 -999 0.044163 0.235751 -0.896096
2008-12-19 09:14:20 51°26.303 2°50.295 -999 0.041281 0.220096 -0.93092
2008-12-19 09:14:25 51°26.32 2°50.293 -999 0.036342 0.193433 -0.93092
2008-12-19 09:14:30 51°26.336 2°50.294 -999 0.036342 0.193433 -0.93092
2008-12-19 09:14:35 51°26.353 2°50.293 -999 0.033049 0.175732 -0.93092
2008-12-19 09:14:40 51°26.37 2°50.295 -999 0.036342 0.193436 -0.93092
2008-12-19 09:14:45 51°26.386 2°50.301 -999 0.143373 0.797355 -0.93092
2008-12-19 09:14:50 51°26.4 2°50.311 -999 0.092222 0.503346 -0.965744
2008-12-19 09:14:55 51°26.413 2°50.324 -999 0.054968 0.294986 -0.93092
2008-12-19 09:15:00 51°26.425 2°50.34 -999 0.054968 0.294986 -0.93092
2008-12-19 09:15:05 51°26.434 2°50.36 -999 0.050543 0.270643 -0.93092
2008-12-19 09:15:10 51°26.442 2°50.38 -999 0.292627 1.688621 -0.93092
2008-12-19 09:15:14 51°26.447 2°50.398 -999 0.237759 1.356192 -0.93092
2008-12-19 09:15:20 51°26.454 2°50.425 -999 0.073389 0.397242 -0.896096
2008-12-19 09:15:25 51°26.462 2°50.447 -999 0.446138 2.641097 -0.93092
2008-12-19 09:15:30 51°26.47 2°50.469 -999 0.446138 2.641097 -0.93092
2008-12-19 09:15:35 51°26.477 2°50.493 -999 0.062686 0.337641 -0.965744
2008-12-19 09:15:40 51°26.486 2°50.513 -999 0.084504 0.459715 -0.93092
2008-12-19 09:15:45 51°26.493 2°50.537 -999 0.05785 0.310861 -0.965744
2008-12-19 09:15:50 51°26.503 2°50.56 -999 0.05291 0.283644 -0.93092
2008-12-19 09:15:55 51°26.511 2°50.582 -999 0.065053 0.350801 -0.965744
2008-12-19 09:16:00 51°26.519 2°50.605 -999 0.065053 0.350801 -0.965744
2008-12-19 09:16:05 51°26.529 2°50.627 -999 0.053322 0.285931 -0.861272
2008-12-19 09:16:10 51°26.537 2°50.649 -999 0.061863 0.333077 -0.93092
2008-12-19 09:16:15 51°26.545 2°50.672 -999 0.075242 0.407605 -0.896096
2008-12-19 09:16:20 51°26.556 2°50.693 -999 0.238891 1.36305 -0.896096
2008-12-19 09:16:25 51°26.564 2°50.717 -999 0.458907 2.721446 -0.93092
2008-12-19 09:16:29 51°26.573 2°50.732 -999 0.458907 2.721446 -0.93092
2008-12-19 09:16:35 51°26.583 2°50.76 -999 0.140079 0.778177 -0.861272
2008-12-19 09:16:40 51°26.593 2°50.781 -999 0.078844 0.427811 -0.861272
2008-12-19 09:16:45 51°26.602 2°50.804 -999 0.070199 0.379409 -0.896096
2008-12-19 09:16:49 51°26.609 2°50.821 -999 0.054762 0.293802 -0.896096
2008-12-19 09:16:55 51°26.62 2°50.849 -999 0.133389 0.739221 -0.93092
2008-12-19 09:17:00 51°26.629 2°50.871 -999 0.133389 0.739221 -0.93092
2008-12-19 09:17:05 51°26.637 2°50.894 -999 0.055792 0.299465 -0.965744
2008-12-19 09:17:10 51°26.646 2°50.916 -999 0.176309 0.990032 -0.93092
2008-12-19 09:17:15 51°26.654 2°50.94 -999 0.069581 0.375944 -0.93092
2008-12-19 09:17:20 51°26.663 2°50.962 -999 1.124615 7.109328 -0.965744
2008-12-19 09:17:25 51°26.671 2°50.986 -999 0.108277 0.594806 -0.93092
2008-12-19 09:17:30 51°26.679 2°51.009 -999 0.108277 0.594806 -0.93092
2008-12-19 09:17:34 51°26.686 2°51.027 -999 0.065362 0.352518 -0.93092
2008-12-19 09:17:40 51°26.695 2°51.055 -999 0.263288 1.510357 -0.93092
2008-12-19 09:17:45 51°26.702 2°51.08 -999 0.0879 0.478948 -1.000568
2008-12-19 09:17:50 51°26.712 2°51.102 -999 1.275676 8.147493 -0.93092
2008-12-19 09:17:55 51°26.72 2°51.124 -999 0.144711 0.8053 -0.93092
2008-12-19 09:18:00 51°26.727 2°51.148 -999 0.144711 0.8053 -0.93092
2008-12-19 09:18:05 51°26.737 2°51.17 -999 0.075859 0.411116 -0.93092
2008-12-19 09:18:09 51°26.743 2°51.189 -999 0.226024 1.285866 -0.93092
2008-12-19 09:18:14 51°26.75 2°51.212 -999 0.080181 0.435459 -0.93092
2008-12-19 09:18:20 51°26.76 2°51.24 -999 0.396199 2.328205 -0.965744
2008-12-19 09:18:25 51°26.769 2°51.263 -999 0.148725 0.828651 -0.93092
2008-12-19 09:18:29 51°26.774 2°51.282 -999 0.148725 0.828651 -0.93092
2008-12-19 09:18:34 51°26.783 2°51.305 -999 0.077712 0.421529 -0.93092
2008-12-19 09:18:40 51°26.792 2°51.333 -999 0.087591 0.477128 -0.93092
2008-12-19 09:18:45 51°26.8 2°51.357 -999 0.070714 0.382301 -0.93092
2008-12-19 09:18:49 51°26.806 2°51.375 -999 0.070405 0.380564 -0.93092
2008-12-19 09:18:54 51°26.814 2°51.399 -999 0.080902 0.439357 -0.93092
2008-12-19 09:19:00 51°26.824 2°51.427 -999 0.080902 0.439357 -0.93092
2008-12-19 09:19:05 51°26.831 2°51.451 -999 0.071948 0.389159 -0.93092
2008-12-19 09:19:09 51°26.838 2°51.469 -999 0.069376 0.374796 -0.93092
2008-12-19 09:19:14 51°26.845 2°51.494 -999 0.060525 0.325621 -0.93092
2008-12-19 09:19:20 51°26.856 2°51.519 -999 0.545308 3.271279 -0.965744
2008-12-19 09:19:25 51°26.862 2°51.545 -999 0.086974 0.473722 -0.93092
2008-12-19 09:19:29 51°26.87 2°51.564 -999 0.086974 0.473722 -0.93092
2008-12-19 09:19:34 51°26.878 2°51.586 -999 0.088929 0.484768 -0.93092
2008-12-19 09:19:40 51°26.887 2°51.614 -999 0.094075 0.513932 -0.896096
2008-12-19 09:19:45 51°26.895 2°51.638 -999 0.077197 0.418655 -0.93092
2008-12-19 09:19:49 51°26.902 2°51.656 -999 0.055483 0.297816 -0.93092
2008-12-19 09:19:54 51°26.909 2°51.68 -999 0.055997 0.300636 -0.93092
2008-12-19 09:20:00 51°26.919 2°51.708 -999 0.055997 0.300636 -0.93092
2008-12-19 09:20:05 51°26.926 2°51.731 -999 0.059188 0.318264 -0.93092
2008-12-19 09:20:09 51°26.933 2°51.75 -999 0.048897 0.261679 -0.93092
2008-12-19 09:20:14 51°26.941 2°51.774 -999 0.493713 2.942482 -0.965744
2008-12-19 09:20:20 51°26.95 2°51.802 -999 0.076271 0.413517 -0.93092
2008-12-19 09:20:25 51°26.959 2°51.825 -999 0.0879 0.478932 -0.93092
2008-12-19 09:20:29 51°26.966 2°51.843 -999 0.0879 0.478932 -0.93092
2008-12-19 09:20:34 51°26.973 2°51.867 -999 0.092943 0.507501 -0.93092
2008-12-19 09:20:40 51°26.984 2°51.894 -999 0.464365 2.756497 -0.93092
2008-12-19 09:20:45 51°26.991 2°51.918 -999 0.160767 0.899193 -0.93092
2008-12-19 09:20:49 51°26.997 2°51.936 -999 0.204511 1.157552 -0.93092
2008-12-19 09:20:54 51°27.007 2°51.958 -999 0.074521 0.403669 -0.93092
2008-12-19 09:21:00 51°27.016 2°51.986 -999 0.074521 0.403669 -0.93092
2008-12-19 09:21:05 51°27.024 2°52.008 -999 0.130816 0.724533 -0.93092
2008-12-19 09:21:09 51°27.03 2°52.028 -999 0.063304 0.341032 -0.896096
2008-12-19 09:21:14 51°27.039 2°52.049 -999 0.12742 0.704833 -0.93092
2008-12-19 09:21:20 51°27.048 2°52.078 -999 0.087591 0.477128 -0.93092